<?xml version="1.0" encoding="UTF-8" standalone="no" ?>
<gpx xmlns="http://www.topografix.com/GPX/1/1" xmlns:xsi="http://www.w3.org/2001/XMLSchema-instance" xsi:schemaLocation="http://www.topografix.com/GPX/1/1 http://www.topografix.com/GPX/1/1/gpx.xsd" version="1.1" creator="VisuGPX - https://www.visugpx.com">
  <metadata>
    <name>Vélo de route</name>
  </metadata>
  <trk>
    <name><![CDATA[Vélo de route]]></name>
    <trkseg>
      <trkpt lat="50.50322" lon="3.46426">
        <ele>21.360408</ele>
        <time>2022-07-16T13:14:00.652Z</time>
      </trkpt>
      <trkpt lat="50.50361" lon="3.46452">
        <ele>21.360408</ele>
        <time>2022-07-16T13:14:07.332Z</time>
      </trkpt>
      <trkpt lat="50.50523" lon="3.46572">
        <ele>22.745857</ele>
        <time>2022-07-16T13:14:40.136Z</time>
      </trkpt>
      <trkpt lat="50.50675" lon="3.46646">
        <ele>24.524633</ele>
        <time>2022-07-16T13:15:13.388Z</time>
      </trkpt>
      <trkpt lat="50.50708" lon="3.46672">
        <ele>24.938715</ele>
        <time>2022-07-16T13:15:20.301Z</time>
      </trkpt>
      <trkpt lat="50.50735" lon="3.46707">
        <ele>25.311291</ele>
        <time>2022-07-16T13:15:26.383Z</time>
      </trkpt>
      <trkpt lat="50.50821" lon="3.46826">
        <ele>25.239476</ele>
        <time>2022-07-16T13:15:43.349Z</time>
      </trkpt>
      <trkpt lat="50.50831" lon="3.4684">
        <ele>25.231305</ele>
        <time>2022-07-16T13:15:45.097Z</time>
      </trkpt>
      <trkpt lat="50.50837" lon="3.46857">
        <ele>25.223407</ele>
        <time>2022-07-16T13:15:46.793Z</time>
      </trkpt>
      <trkpt lat="50.50839" lon="3.46894">
        <ele>25.208897</ele>
        <time>2022-07-16T13:15:49.890Z</time>
      </trkpt>
      <trkpt lat="50.5084" lon="3.46941">
        <ele>25.124643</ele>
        <time>2022-07-16T13:15:53.901Z</time>
      </trkpt>
      <trkpt lat="50.5085" lon="3.46978">
        <ele>25.003669</ele>
        <time>2022-07-16T13:15:57.326Z</time>
      </trkpt>
      <trkpt lat="50.50871" lon="3.47017">
        <ele>24.850819</ele>
        <time>2022-07-16T13:16:01.629Z</time>
      </trkpt>
      <trkpt lat="50.50936" lon="3.47117">
        <ele>24.424933</ele>
        <time>2022-07-16T13:16:13.560Z</time>
      </trkpt>
      <trkpt lat="50.51052" lon="3.47235">
        <ele>23.77518</ele>
        <time>2022-07-16T13:16:32.306Z</time>
      </trkpt>
      <trkpt lat="50.51065" lon="3.47258">
        <ele>23.686882</ele>
        <time>2022-07-16T13:16:34.763Z</time>
      </trkpt>
      <trkpt lat="50.51063" lon="3.47286">
        <ele>23.603807</ele>
        <time>2022-07-16T13:16:37.102Z</time>
      </trkpt>
      <trkpt lat="50.51009" lon="3.47427">
        <ele>23.02518</ele>
        <time>2022-07-16T13:16:50.906Z</time>
      </trkpt>
      <trkpt lat="50.51006" lon="3.47445">
        <ele>22.959334</ele>
        <time>2022-07-16T13:16:52.452Z</time>
      </trkpt>
      <trkpt lat="50.51016" lon="3.47475">
        <ele>22.835345</ele>
        <time>2022-07-16T13:16:55.303Z</time>
      </trkpt>
      <trkpt lat="50.51082" lon="3.4755">
        <ele>22.385016</ele>
        <time>2022-07-16T13:17:05.765Z</time>
      </trkpt>
      <trkpt lat="50.51104" lon="3.47596">
        <ele>22.198201</ele>
        <time>2022-07-16T13:17:10.353Z</time>
      </trkpt>
      <trkpt lat="50.5111" lon="3.47622">
        <ele>22.10716</ele>
        <time>2022-07-16T13:17:12.526Z</time>
      </trkpt>
      <trkpt lat="50.51109" lon="3.47654">
        <ele>22.004812</ele>
        <time>2022-07-16T13:17:15.291Z</time>
      </trkpt>
      <trkpt lat="50.51104" lon="3.47687">
        <ele>21.894727</ele>
        <time>2022-07-16T13:17:18.074Z</time>
      </trkpt>
      <trkpt lat="50.51082" lon="3.47762">
        <ele>21.626714</ele>
        <time>2022-07-16T13:17:25.311Z</time>
      </trkpt>
      <trkpt lat="50.51082" lon="3.47783">
        <ele>21.565389</ele>
        <time>2022-07-16T13:17:27.109Z</time>
      </trkpt>
      <trkpt lat="50.51113" lon="3.47827">
        <ele>21.54997</ele>
        <time>2022-07-16T13:17:33.340Z</time>
      </trkpt>
      <trkpt lat="50.51122" lon="3.47856">
        <ele>21.542449</ele>
        <time>2022-07-16T13:17:36.427Z</time>
      </trkpt>
      <trkpt lat="50.51125" lon="3.47964">
        <ele>21.517121</ele>
        <time>2022-07-16T13:17:46.615Z</time>
      </trkpt>
      <trkpt lat="50.51131" lon="3.48014">
        <ele>21.505382</ele>
        <time>2022-07-16T13:17:51.383Z</time>
      </trkpt>
      <trkpt lat="50.51143" lon="3.48169">
        <ele>21.495127</ele>
        <time>2022-07-16T13:18:06.262Z</time>
      </trkpt>
      <trkpt lat="50.51139" lon="3.48222">
        <ele>21.493186</ele>
        <time>2022-07-16T13:18:11.187Z</time>
      </trkpt>
      <trkpt lat="50.51131" lon="3.48247">
        <ele>21.492175</ele>
        <time>2022-07-16T13:18:13.751Z</time>
      </trkpt>
      <trkpt lat="50.511" lon="3.48334">
        <ele>21.522563</ele>
        <time>2022-07-16T13:18:22.936Z</time>
      </trkpt>
      <trkpt lat="50.51087" lon="3.48377">
        <ele>21.570835</ele>
        <time>2022-07-16T13:18:27.776Z</time>
      </trkpt>
      <trkpt lat="50.5108" lon="3.48506">
        <ele>21.703481</ele>
        <time>2022-07-16T13:18:41.155Z</time>
      </trkpt>
      <trkpt lat="50.51087" lon="3.48586">
        <ele>21.762824</ele>
        <time>2022-07-16T13:18:48.886Z</time>
      </trkpt>
      <trkpt lat="50.51084" lon="3.48622">
        <ele>21.670036</ele>
        <time>2022-07-16T13:18:52.430Z</time>
      </trkpt>
      <trkpt lat="50.51066" lon="3.48685">
        <ele>21.493749</ele>
        <time>2022-07-16T13:18:58.854Z</time>
      </trkpt>
      <trkpt lat="50.51047" lon="3.48742">
        <ele>21.329731</ele>
        <time>2022-07-16T13:19:04.629Z</time>
      </trkpt>
      <trkpt lat="50.51031" lon="3.4876">
        <ele>21.251777</ele>
        <time>2022-07-16T13:19:07.335Z</time>
      </trkpt>
      <trkpt lat="50.5095" lon="3.4873">
        <ele>20.645815</ele>
        <time>2022-07-16T13:19:17.282Z</time>
      </trkpt>
      <trkpt lat="50.50894" lon="3.48736">
        <ele>19.975912</ele>
        <time>2022-07-16T13:19:23.887Z</time>
      </trkpt>
      <trkpt lat="50.50863" lon="3.48798">
        <ele>19.36959</ele>
        <time>2022-07-16T13:19:29.894Z</time>
      </trkpt>
      <trkpt lat="50.50848" lon="3.48828">
        <ele>19.081016</ele>
        <time>2022-07-16T13:19:32.778Z</time>
      </trkpt>
      <trkpt lat="50.50822" lon="3.4887">
        <ele>18.712762</ele>
        <time>2022-07-16T13:19:37.130Z</time>
      </trkpt>
      <trkpt lat="50.50807" lon="3.48884">
        <ele>18.564053</ele>
        <time>2022-07-16T13:19:39.140Z</time>
      </trkpt>
      <trkpt lat="50.50783" lon="3.48892">
        <ele>18.341737</ele>
        <time>2022-07-16T13:19:42.206Z</time>
      </trkpt>
      <trkpt lat="50.50762" lon="3.48884">
        <ele>18.16046</ele>
        <time>2022-07-16T13:19:44.720Z</time>
      </trkpt>
      <trkpt lat="50.50697" lon="3.48851">
        <ele>17.558703</ele>
        <time>2022-07-16T13:19:53.549Z</time>
      </trkpt>
      <trkpt lat="50.50675" lon="3.48848">
        <ele>17.371965</ele>
        <time>2022-07-16T13:19:56.413Z</time>
      </trkpt>
      <trkpt lat="50.50664" lon="3.48854">
        <ele>17.30889</ele>
        <time>2022-07-16T13:19:58.015Z</time>
      </trkpt>
      <trkpt lat="50.50654" lon="3.48871">
        <ele>17.256273</ele>
        <time>2022-07-16T13:20:00.055Z</time>
      </trkpt>
      <trkpt lat="50.50629" lon="3.48944">
        <ele>17.070518</ele>
        <time>2022-07-16T13:20:07.051Z</time>
      </trkpt>
      <trkpt lat="50.50551" lon="3.4902">
        <ele>16.743633</ele>
        <time>2022-07-16T13:20:19.852Z</time>
      </trkpt>
      <trkpt lat="50.50468" lon="3.49131">
        <ele>16.572077</ele>
        <time>2022-07-16T13:20:35.016Z</time>
      </trkpt>
      <trkpt lat="50.50399" lon="3.49173">
        <ele>16.472399</ele>
        <time>2022-07-16T13:20:45.638Z</time>
      </trkpt>
      <trkpt lat="50.50337" lon="3.49221">
        <ele>16.486709</ele>
        <time>2022-07-16T13:20:56.216Z</time>
      </trkpt>
      <trkpt lat="50.50301" lon="3.49249">
        <ele>16.504418</ele>
        <time>2022-07-16T13:21:02.562Z</time>
      </trkpt>
      <trkpt lat="50.50197" lon="3.49315">
        <ele>16.481353</ele>
        <time>2022-07-16T13:21:19.206Z</time>
      </trkpt>
      <trkpt lat="50.50191" lon="3.49319">
        <ele>16.468992</ele>
        <time>2022-07-16T13:21:20.194Z</time>
      </trkpt>
      <trkpt lat="50.50056" lon="3.49423">
        <ele>16.22372</ele>
        <time>2022-07-16T13:21:40.890Z</time>
      </trkpt>
      <trkpt lat="50.49885" lon="3.49626">
        <ele>16.533973</ele>
        <time>2022-07-16T13:22:13.750Z</time>
      </trkpt>
      <trkpt lat="50.49872" lon="3.49635">
        <ele>16.592401</ele>
        <time>2022-07-16T13:22:16.343Z</time>
      </trkpt>
      <trkpt lat="50.49868" lon="3.49638">
        <ele>16.606844</ele>
        <time>2022-07-16T13:22:16.987Z</time>
      </trkpt>
      <trkpt lat="50.49786" lon="3.49689">
        <ele>16.95231</ele>
        <time>2022-07-16T13:22:32.152Z</time>
      </trkpt>
      <trkpt lat="50.49674" lon="3.49784">
        <ele>17.137414</ele>
        <time>2022-07-16T13:22:52.654Z</time>
      </trkpt>
      <trkpt lat="50.49552" lon="3.49866">
        <ele>16.943503</ele>
        <time>2022-07-16T13:23:11.123Z</time>
      </trkpt>
      <trkpt lat="50.49539" lon="3.49856">
        <ele>16.874497</ele>
        <time>2022-07-16T13:23:12.915Z</time>
      </trkpt>
      <trkpt lat="50.49504" lon="3.49795">
        <ele>16.614761</ele>
        <time>2022-07-16T13:23:19.889Z</time>
      </trkpt>
      <trkpt lat="50.4949" lon="3.49783">
        <ele>16.537028</ele>
        <time>2022-07-16T13:23:21.866Z</time>
      </trkpt>
      <trkpt lat="50.49442" lon="3.49791">
        <ele>16.306287</ele>
        <time>2022-07-16T13:23:28.082Z</time>
      </trkpt>
      <trkpt lat="50.49356" lon="3.49781">
        <ele>16.167834</ele>
        <time>2022-07-16T13:23:39.737Z</time>
      </trkpt>
      <trkpt lat="50.49327" lon="3.49756">
        <ele>16.114981</ele>
        <time>2022-07-16T13:23:44.621Z</time>
      </trkpt>
      <trkpt lat="50.49317" lon="3.49754">
        <ele>16.099063</ele>
        <time>2022-07-16T13:23:46.134Z</time>
      </trkpt>
      <trkpt lat="50.49284" lon="3.49771">
        <ele>16.043737</ele>
        <time>2022-07-16T13:23:51.430Z</time>
      </trkpt>
      <trkpt lat="50.49201" lon="3.49848">
        <ele>16.278541</ele>
        <time>2022-07-16T13:24:07.075Z</time>
      </trkpt>
      <trkpt lat="50.49196" lon="3.49853">
        <ele>16.295429</ele>
        <time>2022-07-16T13:24:07.985Z</time>
      </trkpt>
      <trkpt lat="50.49094" lon="3.49838">
        <ele>16.562975</ele>
        <time>2022-07-16T13:24:24.929Z</time>
      </trkpt>
      <trkpt lat="50.49082" lon="3.49844">
        <ele>16.548393</ele>
        <time>2022-07-16T13:24:26.825Z</time>
      </trkpt>
      <trkpt lat="50.49" lon="3.49921">
        <ele>16.440242</ele>
        <time>2022-07-16T13:24:40.673Z</time>
      </trkpt>
      <trkpt lat="50.48951" lon="3.49913">
        <ele>16.383713</ele>
        <time>2022-07-16T13:24:47.276Z</time>
      </trkpt>
      <trkpt lat="50.48934" lon="3.49909">
        <ele>16.360634</ele>
        <time>2022-07-16T13:24:49.453Z</time>
      </trkpt>
      <trkpt lat="50.48927" lon="3.49907">
        <ele>16.346176</ele>
        <time>2022-07-16T13:24:50.472Z</time>
      </trkpt>
      <trkpt lat="50.48914" lon="3.49904">
        <ele>16.321331</ele>
        <time>2022-07-16T13:24:52.284Z</time>
      </trkpt>
      <trkpt lat="50.48911" lon="3.49902">
        <ele>16.314313</ele>
        <time>2022-07-16T13:24:52.822Z</time>
      </trkpt>
      <trkpt lat="50.48906" lon="3.49893">
        <ele>16.298618</ele>
        <time>2022-07-16T13:24:53.893Z</time>
      </trkpt>
      <trkpt lat="50.48879" lon="3.49766">
        <ele>16.134289</ele>
        <time>2022-07-16T13:25:05.940Z</time>
      </trkpt>
      <trkpt lat="50.48866" lon="3.49716">
        <ele>16.06823</ele>
        <time>2022-07-16T13:25:10.944Z</time>
      </trkpt>
      <trkpt lat="50.48847" lon="3.49688">
        <ele>16.018071</ele>
        <time>2022-07-16T13:25:14.706Z</time>
      </trkpt>
      <trkpt lat="50.48765" lon="3.49649">
        <ele>15.874988</ele>
        <time>2022-07-16T13:25:26.876Z</time>
      </trkpt>
      <trkpt lat="50.48734" lon="3.4961">
        <ele>15.809156</ele>
        <time>2022-07-16T13:25:32.600Z</time>
      </trkpt>
      <trkpt lat="50.48684" lon="3.49642">
        <ele>15.727902</ele>
        <time>2022-07-16T13:25:40.155Z</time>
      </trkpt>
      <trkpt lat="50.48628" lon="3.49654">
        <ele>15.80325</ele>
        <time>2022-07-16T13:25:48.301Z</time>
      </trkpt>
      <trkpt lat="50.48604" lon="3.49668">
        <ele>15.837342</ele>
        <time>2022-07-16T13:25:52.277Z</time>
      </trkpt>
      <trkpt lat="50.4857" lon="3.49704">
        <ele>15.891562</ele>
        <time>2022-07-16T13:25:58.974Z</time>
      </trkpt>
      <trkpt lat="50.48518" lon="3.49787">
        <ele>15.945263</ele>
        <time>2022-07-16T13:26:10.860Z</time>
      </trkpt>
      <trkpt lat="50.48475" lon="3.49799">
        <ele>15.91108</ele>
        <time>2022-07-16T13:26:17.645Z</time>
      </trkpt>
      <trkpt lat="50.48464" lon="3.49803">
        <ele>15.901692</ele>
        <time>2022-07-16T13:26:19.557Z</time>
      </trkpt>
      <trkpt lat="50.48456" lon="3.4981">
        <ele>15.894264</ele>
        <time>2022-07-16T13:26:20.946Z</time>
      </trkpt>
      <trkpt lat="50.48317" lon="3.50036">
        <ele>15.32582</ele>
        <time>2022-07-16T13:26:47.961Z</time>
      </trkpt>
      <trkpt lat="50.48314" lon="3.50065">
        <ele>15.237457</ele>
        <time>2022-07-16T13:26:50.329Z</time>
      </trkpt>
      <trkpt lat="50.48334" lon="3.50155">
        <ele>14.956782</ele>
        <time>2022-07-16T13:26:58.264Z</time>
      </trkpt>
      <trkpt lat="50.48334" lon="3.50262">
        <ele>14.757078</ele>
        <time>2022-07-16T13:27:07.330Z</time>
      </trkpt>
      <trkpt lat="50.48214" lon="3.50514">
        <ele>14.499437</ele>
        <time>2022-07-16T13:27:35.888Z</time>
      </trkpt>
      <trkpt lat="50.48156" lon="3.50601">
        <ele>14.551696</ele>
        <time>2022-07-16T13:27:48.469Z</time>
      </trkpt>
      <trkpt lat="50.48119" lon="3.50654">
        <ele>14.730539</ele>
        <time>2022-07-16T13:27:56.664Z</time>
      </trkpt>
      <trkpt lat="50.48087" lon="3.50718">
        <ele>14.941</ele>
        <time>2022-07-16T13:28:05.270Z</time>
      </trkpt>
      <trkpt lat="50.48047" lon="3.50871">
        <ele>15.380187</ele>
        <time>2022-07-16T13:28:22.885Z</time>
      </trkpt>
      <trkpt lat="50.47986" lon="3.50967">
        <ele>15.775436</ele>
        <time>2022-07-16T13:28:37.038Z</time>
      </trkpt>
      <trkpt lat="50.47952" lon="3.51044">
        <ele>16.050003</ele>
        <time>2022-07-16T13:28:47.051Z</time>
      </trkpt>
      <trkpt lat="50.47858" lon="3.51324">
        <ele>17.272765</ele>
        <time>2022-07-16T13:29:22.033Z</time>
      </trkpt>
      <trkpt lat="50.47824" lon="3.51488">
        <ele>17.854779</ele>
        <time>2022-07-16T13:29:40.618Z</time>
      </trkpt>
      <trkpt lat="50.47784" lon="3.51622">
        <ele>18.345618</ele>
        <time>2022-07-16T13:29:56.323Z</time>
      </trkpt>
      <trkpt lat="50.47783" lon="3.51642">
        <ele>18.410669</ele>
        <time>2022-07-16T13:29:58.496Z</time>
      </trkpt>
      <trkpt lat="50.47783" lon="3.5165">
        <ele>18.435137</ele>
        <time>2022-07-16T13:29:59.304Z</time>
      </trkpt>
      <trkpt lat="50.47782" lon="3.51662">
        <ele>18.476405</ele>
        <time>2022-07-16T13:30:00.661Z</time>
      </trkpt>
      <trkpt lat="50.4778" lon="3.51694">
        <ele>18.578202</ele>
        <time>2022-07-16T13:30:04.040Z</time>
      </trkpt>
      <trkpt lat="50.47759" lon="3.52018">
        <ele>19.437813</ele>
        <time>2022-07-16T13:30:38.814Z</time>
      </trkpt>
      <trkpt lat="50.47758" lon="3.52039">
        <ele>19.483006</ele>
        <time>2022-07-16T13:30:40.996Z</time>
      </trkpt>
      <trkpt lat="50.47755" lon="3.52073">
        <ele>19.554597</ele>
        <time>2022-07-16T13:30:44.392Z</time>
      </trkpt>
      <trkpt lat="50.4773" lon="3.52141">
        <ele>19.709407</ele>
        <time>2022-07-16T13:30:52.120Z</time>
      </trkpt>
      <trkpt lat="50.47693" lon="3.52217">
        <ele>19.856502</ele>
        <time>2022-07-16T13:31:01.511Z</time>
      </trkpt>
      <trkpt lat="50.47654" lon="3.52277">
        <ele>19.989059</ele>
        <time>2022-07-16T13:31:10.092Z</time>
      </trkpt>
      <trkpt lat="50.47614" lon="3.52314">
        <ele>20.101452</ele>
        <time>2022-07-16T13:31:17.411Z</time>
      </trkpt>
      <trkpt lat="50.476" lon="3.52316">
        <ele>20.162966</ele>
        <time>2022-07-16T13:31:19.740Z</time>
      </trkpt>
      <trkpt lat="50.47543" lon="3.52297">
        <ele>20.532746</ele>
        <time>2022-07-16T13:31:29.719Z</time>
      </trkpt>
      <trkpt lat="50.47516" lon="3.52307">
        <ele>20.707538</ele>
        <time>2022-07-16T13:31:36.206Z</time>
      </trkpt>
      <trkpt lat="50.47446" lon="3.52307">
        <ele>21.15551</ele>
        <time>2022-07-16T13:31:52.483Z</time>
      </trkpt>
      <trkpt lat="50.47436" lon="3.52306">
        <ele>21.217814</ele>
        <time>2022-07-16T13:31:54.659Z</time>
      </trkpt>
      <trkpt lat="50.47397" lon="3.52316">
        <ele>21.406922</ele>
        <time>2022-07-16T13:32:03.697Z</time>
      </trkpt>
      <trkpt lat="50.47376" lon="3.52321">
        <ele>21.497422</ele>
        <time>2022-07-16T13:32:08.391Z</time>
      </trkpt>
      <trkpt lat="50.47349" lon="3.52328">
        <ele>21.617785</ele>
        <time>2022-07-16T13:32:14.437Z</time>
      </trkpt>
      <trkpt lat="50.47321" lon="3.52338">
        <ele>21.745715</ele>
        <time>2022-07-16T13:32:20.841Z</time>
      </trkpt>
      <trkpt lat="50.47311" lon="3.52343">
        <ele>21.792555</ele>
        <time>2022-07-16T13:32:23.180Z</time>
      </trkpt>
      <trkpt lat="50.47282" lon="3.52383">
        <ele>21.961455</ele>
        <time>2022-07-16T13:32:31.571Z</time>
      </trkpt>
      <trkpt lat="50.47246" lon="3.52432">
        <ele>21.948629</ele>
        <time>2022-07-16T13:32:41.721Z</time>
      </trkpt>
      <trkpt lat="50.47173" lon="3.5254">
        <ele>21.566692</ele>
        <time>2022-07-16T13:33:01.177Z</time>
      </trkpt>
      <trkpt lat="50.47135" lon="3.52477">
        <ele>21.316424</ele>
        <time>2022-07-16T13:33:08.294Z</time>
      </trkpt>
      <trkpt lat="50.47084" lon="3.52412">
        <ele>20.371389</ele>
        <time>2022-07-16T13:33:15.727Z</time>
      </trkpt>
      <trkpt lat="50.47043" lon="3.5234">
        <ele>19.477372</ele>
        <time>2022-07-16T13:33:22.585Z</time>
      </trkpt>
      <trkpt lat="50.47003" lon="3.52294">
        <ele>18.749364</ele>
        <time>2022-07-16T13:33:28.334Z</time>
      </trkpt>
      <trkpt lat="50.46989" lon="3.52278">
        <ele>18.63498</ele>
        <time>2022-07-16T13:33:30.347Z</time>
      </trkpt>
      <trkpt lat="50.46985" lon="3.52273">
        <ele>18.603921</ele>
        <time>2022-07-16T13:33:30.926Z</time>
      </trkpt>
      <trkpt lat="50.46961" lon="3.52246">
        <ele>18.410068</ele>
        <time>2022-07-16T13:33:34.469Z</time>
      </trkpt>
      <trkpt lat="50.46903" lon="3.52179">
        <ele>17.933706</ele>
        <time>2022-07-16T13:33:43.669Z</time>
      </trkpt>
      <trkpt lat="50.46859" lon="3.52136">
        <ele>17.59444</ele>
        <time>2022-07-16T13:33:51.142Z</time>
      </trkpt>
      <trkpt lat="50.46702" lon="3.52009">
        <ele>17.782019</ele>
        <time>2022-07-16T13:34:18.813Z</time>
      </trkpt>
      <trkpt lat="50.46599" lon="3.5194">
        <ele>17.978938</ele>
        <time>2022-07-16T13:34:35.912Z</time>
      </trkpt>
      <trkpt lat="50.46568" lon="3.51907">
        <ele>18.046131</ele>
        <time>2022-07-16T13:34:41.817Z</time>
      </trkpt>
      <trkpt lat="50.46439" lon="3.5173">
        <ele>18.491175</ele>
        <time>2022-07-16T13:35:09.099Z</time>
      </trkpt>
      <trkpt lat="50.46372" lon="3.51656">
        <ele>18.726877</ele>
        <time>2022-07-16T13:35:22.174Z</time>
      </trkpt>
      <trkpt lat="50.46353" lon="3.51643">
        <ele>18.785806</ele>
        <time>2022-07-16T13:35:25.492Z</time>
      </trkpt>
      <trkpt lat="50.46277" lon="3.51833">
        <ele>19.171727</ele>
        <time>2022-07-16T13:35:48.383Z</time>
      </trkpt>
      <trkpt lat="50.46244" lon="3.5195">
        <ele>19.299095</ele>
        <time>2022-07-16T13:36:01.151Z</time>
      </trkpt>
      <trkpt lat="50.4621" lon="3.52046">
        <ele>19.409326</ele>
        <time>2022-07-16T13:36:12.152Z</time>
      </trkpt>
      <trkpt lat="50.46142" lon="3.52179">
        <ele>19.197585</ele>
        <time>2022-07-16T13:36:27.411Z</time>
      </trkpt>
      <trkpt lat="50.46103" lon="3.52267">
        <ele>19.041645</ele>
        <time>2022-07-16T13:36:36.686Z</time>
      </trkpt>
      <trkpt lat="50.46093" lon="3.52304">
        <ele>18.979229</ele>
        <time>2022-07-16T13:36:40.054Z</time>
      </trkpt>
      <trkpt lat="50.46036" lon="3.52652">
        <ele>18.754276</ele>
        <time>2022-07-16T13:37:12.105Z</time>
      </trkpt>
      <trkpt lat="50.45992" lon="3.52777">
        <ele>19.053971</ele>
        <time>2022-07-16T13:37:27.047Z</time>
      </trkpt>
      <trkpt lat="50.45747" lon="3.52559">
        <ele>21.713653</ele>
        <time>2022-07-16T13:38:20.466Z</time>
      </trkpt>
      <trkpt lat="50.45717" lon="3.52524">
        <ele>22.104153</ele>
        <time>2022-07-16T13:38:27.930Z</time>
      </trkpt>
      <trkpt lat="50.45668" lon="3.52446">
        <ele>22.822404</ele>
        <time>2022-07-16T13:38:41.244Z</time>
      </trkpt>
      <trkpt lat="50.45655" lon="3.52443">
        <ele>22.887105</ele>
        <time>2022-07-16T13:38:43.544Z</time>
      </trkpt>
      <trkpt lat="50.45648" lon="3.52404">
        <ele>23.013359</ele>
        <time>2022-07-16T13:38:48.164Z</time>
      </trkpt>
      <trkpt lat="50.45627" lon="3.52362">
        <ele>23.183077</ele>
        <time>2022-07-16T13:38:54.130Z</time>
      </trkpt>
      <trkpt lat="50.45546" lon="3.52265">
        <ele>23.686886</ele>
        <time>2022-07-16T13:39:10.579Z</time>
      </trkpt>
      <trkpt lat="50.45526" lon="3.52222">
        <ele>23.706462</ele>
        <time>2022-07-16T13:39:15.489Z</time>
      </trkpt>
      <trkpt lat="50.45456" lon="3.52014">
        <ele>23.715862</ele>
        <time>2022-07-16T13:39:37.268Z</time>
      </trkpt>
      <trkpt lat="50.45453" lon="3.52003">
        <ele>23.76806</ele>
        <time>2022-07-16T13:39:38.401Z</time>
      </trkpt>
      <trkpt lat="50.45457" lon="3.51957">
        <ele>23.977028</ele>
        <time>2022-07-16T13:39:43.120Z</time>
      </trkpt>
      <trkpt lat="50.45466" lon="3.51901">
        <ele>24.234446</ele>
        <time>2022-07-16T13:39:49.221Z</time>
      </trkpt>
      <trkpt lat="50.45485" lon="3.51712">
        <ele>25.144976</ele>
        <time>2022-07-16T13:40:12.143Z</time>
      </trkpt>
      <trkpt lat="50.4553" lon="3.5162">
        <ele>25.926145</ele>
        <time>2022-07-16T13:40:26.850Z</time>
      </trkpt>
      <trkpt lat="50.45583" lon="3.51477">
        <ele>26.973964</ele>
        <time>2022-07-16T13:40:46.509Z</time>
      </trkpt>
      <trkpt lat="50.45601" lon="3.51427">
        <ele>27.226427</ele>
        <time>2022-07-16T13:40:53.130Z</time>
      </trkpt>
      <trkpt lat="50.45649" lon="3.51328">
        <ele>27.770082</ele>
        <time>2022-07-16T13:41:07.109Z</time>
      </trkpt>
      <trkpt lat="50.45666" lon="3.51274">
        <ele>28.033182</ele>
        <time>2022-07-16T13:41:13.728Z</time>
      </trkpt>
      <trkpt lat="50.45749" lon="3.50921">
        <ele>28.59162</ele>
        <time>2022-07-16T13:41:52.610Z</time>
      </trkpt>
      <trkpt lat="50.45749" lon="3.50921">
        <ele>28.59162</ele>
        <time>2022-07-16T13:41:52.623Z</time>
      </trkpt>
      <trkpt lat="50.45941" lon="3.50087">
        <ele>26.766562</ele>
        <time>2022-07-16T13:43:09.479Z</time>
      </trkpt>
      <trkpt lat="50.46013" lon="3.49779">
        <ele>25.968837</ele>
        <time>2022-07-16T13:43:37.562Z</time>
      </trkpt>
      <trkpt lat="50.46015" lon="3.49757">
        <ele>25.916071</ele>
        <time>2022-07-16T13:43:39.683Z</time>
      </trkpt>
      <trkpt lat="50.46014" lon="3.49706">
        <ele>25.798903</ele>
        <time>2022-07-16T13:43:44.176Z</time>
      </trkpt>
      <trkpt lat="50.45991" lon="3.49526">
        <ele>25.34501</ele>
        <time>2022-07-16T13:44:00.274Z</time>
      </trkpt>
      <trkpt lat="50.45992" lon="3.49502">
        <ele>25.285602</ele>
        <time>2022-07-16T13:44:02.284Z</time>
      </trkpt>
      <trkpt lat="50.45992" lon="3.49483">
        <ele>25.237534</ele>
        <time>2022-07-16T13:44:03.922Z</time>
      </trkpt>
      <trkpt lat="50.45996" lon="3.49479">
        <ele>25.217797</ele>
        <time>2022-07-16T13:44:04.623Z</time>
      </trkpt>
      <trkpt lat="50.45998" lon="3.49468">
        <ele>25.190445</ele>
        <time>2022-07-16T13:44:05.538Z</time>
      </trkpt>
      <trkpt lat="50.45995" lon="3.49456">
        <ele>25.156176</ele>
        <time>2022-07-16T13:44:06.694Z</time>
      </trkpt>
      <trkpt lat="50.45983" lon="3.49452">
        <ele>25.106053</ele>
        <time>2022-07-16T13:44:08.384Z</time>
      </trkpt>
      <trkpt lat="50.4598" lon="3.49435">
        <ele>25.061494</ele>
        <time>2022-07-16T13:44:09.882Z</time>
      </trkpt>
      <trkpt lat="50.45934" lon="3.49098">
        <ele>23.914578</ele>
        <time>2022-07-16T13:44:39.053Z</time>
      </trkpt>
      <trkpt lat="50.45924" lon="3.49017">
        <ele>23.39015</ele>
        <time>2022-07-16T13:44:46.195Z</time>
      </trkpt>
      <trkpt lat="50.46267" lon="3.48523">
        <ele>18.712083</ele>
        <time>2022-07-16T13:46:05.550Z</time>
      </trkpt>
      <trkpt lat="50.46455" lon="3.48251">
        <ele>17.88218</ele>
        <time>2022-07-16T13:46:55.043Z</time>
      </trkpt>
      <trkpt lat="50.46507" lon="3.48174">
        <ele>17.699216</ele>
        <time>2022-07-16T13:47:08.848Z</time>
      </trkpt>
      <trkpt lat="50.46551" lon="3.48072">
        <ele>17.477778</ele>
        <time>2022-07-16T13:47:23.901Z</time>
      </trkpt>
      <trkpt lat="50.46627" lon="3.47989">
        <ele>17.199673</ele>
        <time>2022-07-16T13:47:41.412Z</time>
      </trkpt>
      <trkpt lat="50.46703" lon="3.47893">
        <ele>16.948299</ele>
        <time>2022-07-16T13:48:00.177Z</time>
      </trkpt>
      <trkpt lat="50.46729" lon="3.47857">
        <ele>16.871938</ele>
        <time>2022-07-16T13:48:05.112Z</time>
      </trkpt>
      <trkpt lat="50.46784" lon="3.47766">
        <ele>16.696763</ele>
        <time>2022-07-16T13:48:16.589Z</time>
      </trkpt>
      <trkpt lat="50.46852" lon="3.47621">
        <ele>16.520187</ele>
        <time>2022-07-16T13:48:32.913Z</time>
      </trkpt>
      <trkpt lat="50.46892" lon="3.47497">
        <ele>16.399951</ele>
        <time>2022-07-16T13:48:45.550Z</time>
      </trkpt>
      <trkpt lat="50.469" lon="3.47464">
        <ele>16.386748</ele>
        <time>2022-07-16T13:48:48.789Z</time>
      </trkpt>
      <trkpt lat="50.46897" lon="3.47433">
        <ele>16.375079</ele>
        <time>2022-07-16T13:48:51.532Z</time>
      </trkpt>
      <trkpt lat="50.46868" lon="3.47366">
        <ele>16.344423</ele>
        <time>2022-07-16T13:48:58.985Z</time>
      </trkpt>
      <trkpt lat="50.46869" lon="3.47337">
        <ele>16.33375</ele>
        <time>2022-07-16T13:49:01.598Z</time>
      </trkpt>
      <trkpt lat="50.46874" lon="3.47324">
        <ele>16.327779</ele>
        <time>2022-07-16T13:49:03.210Z</time>
      </trkpt>
      <trkpt lat="50.46912" lon="3.47288">
        <ele>16.301803</ele>
        <time>2022-07-16T13:49:09.810Z</time>
      </trkpt>
      <trkpt lat="50.46955" lon="3.4722">
        <ele>16.288608</ele>
        <time>2022-07-16T13:49:18.975Z</time>
      </trkpt>
      <trkpt lat="50.46982" lon="3.47169">
        <ele>16.280527</ele>
        <time>2022-07-16T13:49:25.199Z</time>
      </trkpt>
      <trkpt lat="50.47005" lon="3.47114">
        <ele>16.272352</ele>
        <time>2022-07-16T13:49:31.344Z</time>
      </trkpt>
      <trkpt lat="50.47062" lon="3.46932">
        <ele>16.07751</ele>
        <time>2022-07-16T13:49:49.917Z</time>
      </trkpt>
      <trkpt lat="50.47076" lon="3.46911">
        <ele>16.039013</ele>
        <time>2022-07-16T13:49:52.564Z</time>
      </trkpt>
      <trkpt lat="50.46998" lon="3.46746">
        <ele>15.808815</ele>
        <time>2022-07-16T13:50:10.535Z</time>
      </trkpt>
      <trkpt lat="50.4699" lon="3.46713">
        <ele>15.776991</ele>
        <time>2022-07-16T13:50:13.742Z</time>
      </trkpt>
      <trkpt lat="50.46992" lon="3.46685">
        <ele>15.751228</ele>
        <time>2022-07-16T13:50:16.251Z</time>
      </trkpt>
      <trkpt lat="50.47001" lon="3.46643">
        <ele>15.710418</ele>
        <time>2022-07-16T13:50:20.385Z</time>
      </trkpt>
      <trkpt lat="50.47023" lon="3.46585">
        <ele>15.649047</ele>
        <time>2022-07-16T13:50:27.032Z</time>
      </trkpt>
      <trkpt lat="50.47035" lon="3.46539">
        <ele>15.669871</ele>
        <time>2022-07-16T13:50:31.727Z</time>
      </trkpt>
      <trkpt lat="50.47039" lon="3.46496">
        <ele>15.702793</ele>
        <time>2022-07-16T13:50:35.593Z</time>
      </trkpt>
      <trkpt lat="50.4703" lon="3.46433">
        <ele>15.751499</ele>
        <time>2022-07-16T13:50:41.525Z</time>
      </trkpt>
      <trkpt lat="50.47019" lon="3.46397">
        <ele>15.782307</ele>
        <time>2022-07-16T13:50:45.670Z</time>
      </trkpt>
      <trkpt lat="50.47009" lon="3.46377">
        <ele>15.801193</ele>
        <time>2022-07-16T13:50:48.145Z</time>
      </trkpt>
      <trkpt lat="50.46964" lon="3.46306">
        <ele>15.94643</ele>
        <time>2022-07-16T13:50:58.270Z</time>
      </trkpt>
      <trkpt lat="50.46976" lon="3.4622">
        <ele>16.21582</ele>
        <time>2022-07-16T13:51:07.556Z</time>
      </trkpt>
      <trkpt lat="50.46973" lon="3.46127">
        <ele>16.498943</ele>
        <time>2022-07-16T13:51:17.207Z</time>
      </trkpt>
      <trkpt lat="50.46984" lon="3.46037">
        <ele>16.829263</ele>
        <time>2022-07-16T13:51:27.622Z</time>
      </trkpt>
      <trkpt lat="50.46981" lon="3.45981">
        <ele>17.133789</ele>
        <time>2022-07-16T13:51:34.130Z</time>
      </trkpt>
      <trkpt lat="50.46949" lon="3.45908">
        <ele>17.619671</ele>
        <time>2022-07-16T13:51:44.578Z</time>
      </trkpt>
      <trkpt lat="50.46912" lon="3.45839">
        <ele>18.113211</ele>
        <time>2022-07-16T13:51:55.230Z</time>
      </trkpt>
      <trkpt lat="50.46864" lon="3.45759">
        <ele>18.35979</ele>
        <time>2022-07-16T13:52:08.310Z</time>
      </trkpt>
      <trkpt lat="50.46789" lon="3.45659">
        <ele>18.54221</ele>
        <time>2022-07-16T13:52:23.513Z</time>
      </trkpt>
      <trkpt lat="50.46766" lon="3.45611">
        <ele>18.469768</ele>
        <time>2022-07-16T13:52:28.422Z</time>
      </trkpt>
      <trkpt lat="50.46756" lon="3.45588">
        <ele>18.227547</ele>
        <time>2022-07-16T13:52:30.600Z</time>
      </trkpt>
      <trkpt lat="50.46745" lon="3.45555">
        <ele>17.916387</ele>
        <time>2022-07-16T13:52:33.317Z</time>
      </trkpt>
      <trkpt lat="50.46732" lon="3.4548">
        <ele>17.244677</ele>
        <time>2022-07-16T13:52:39.195Z</time>
      </trkpt>
      <trkpt lat="50.46735" lon="3.45453">
        <ele>17.012175</ele>
        <time>2022-07-16T13:52:41.180Z</time>
      </trkpt>
      <trkpt lat="50.46734" lon="3.45444">
        <ele>16.929615</ele>
        <time>2022-07-16T13:52:41.890Z</time>
      </trkpt>
      <trkpt lat="50.46729" lon="3.45442">
        <ele>16.865353</ele>
        <time>2022-07-16T13:52:42.447Z</time>
      </trkpt>
      <trkpt lat="50.46719" lon="3.45435">
        <ele>16.709627</ele>
        <time>2022-07-16T13:52:43.783Z</time>
      </trkpt>
      <trkpt lat="50.46721" lon="3.45427">
        <ele>16.629888</ele>
        <time>2022-07-16T13:52:44.720Z</time>
      </trkpt>
      <trkpt lat="50.46683" lon="3.45399">
        <ele>16.107504</ele>
        <time>2022-07-16T13:52:51.156Z</time>
      </trkpt>
      <trkpt lat="50.4668" lon="3.45394">
        <ele>16.06754</ele>
        <time>2022-07-16T13:52:51.867Z</time>
      </trkpt>
      <trkpt lat="50.46618" lon="3.453">
        <ele>15.322023</ele>
        <time>2022-07-16T13:53:05.953Z</time>
      </trkpt>
      <trkpt lat="50.46614" lon="3.45281">
        <ele>15.208276</ele>
        <time>2022-07-16T13:53:08.336Z</time>
      </trkpt>
      <trkpt lat="50.46614" lon="3.45242">
        <ele>14.990214</ele>
        <time>2022-07-16T13:53:13.035Z</time>
      </trkpt>
      <trkpt lat="50.46625" lon="3.45218">
        <ele>14.826088</ele>
        <time>2022-07-16T13:53:15.736Z</time>
      </trkpt>
      <trkpt lat="50.46636" lon="3.45204">
        <ele>14.701987</ele>
        <time>2022-07-16T13:53:18.029Z</time>
      </trkpt>
      <trkpt lat="50.46649" lon="3.45188">
        <ele>14.636964</ele>
        <time>2022-07-16T13:53:20.639Z</time>
      </trkpt>
      <trkpt lat="50.46746" lon="3.45059">
        <ele>15.417628</ele>
        <time>2022-07-16T13:53:42.782Z</time>
      </trkpt>
      <trkpt lat="50.46768" lon="3.45001">
        <ele>15.681064</ele>
        <time>2022-07-16T13:53:51.002Z</time>
      </trkpt>
      <trkpt lat="50.46781" lon="3.44932">
        <ele>15.904675</ele>
        <time>2022-07-16T13:53:59.243Z</time>
      </trkpt>
      <trkpt lat="50.46829" lon="3.44616">
        <ele>16.876808</ele>
        <time>2022-07-16T13:54:32.540Z</time>
      </trkpt>
      <trkpt lat="50.46832" lon="3.44489">
        <ele>17.239708</ele>
        <time>2022-07-16T13:54:46.195Z</time>
      </trkpt>
      <trkpt lat="50.46871" lon="3.44361">
        <ele>17.635061</ele>
        <time>2022-07-16T13:55:01.642Z</time>
      </trkpt>
      <trkpt lat="50.46893" lon="3.4429">
        <ele>17.852826</ele>
        <time>2022-07-16T13:55:10.153Z</time>
      </trkpt>
      <trkpt lat="50.46895" lon="3.44286">
        <ele>17.86704</ele>
        <time>2022-07-16T13:55:10.725Z</time>
      </trkpt>
      <trkpt lat="50.4697" lon="3.44166">
        <ele>18.099673</ele>
        <time>2022-07-16T13:55:27.933Z</time>
      </trkpt>
      <trkpt lat="50.47003" lon="3.44054">
        <ele>17.988406</ele>
        <time>2022-07-16T13:55:39.049Z</time>
      </trkpt>
      <trkpt lat="50.47021" lon="3.44011">
        <ele>17.941261</ele>
        <time>2022-07-16T13:55:43.502Z</time>
      </trkpt>
      <trkpt lat="50.47043" lon="3.43975">
        <ele>17.885484</ele>
        <time>2022-07-16T13:55:47.739Z</time>
      </trkpt>
      <trkpt lat="50.47089" lon="3.43934">
        <ele>17.652714</ele>
        <time>2022-07-16T13:55:54.679Z</time>
      </trkpt>
      <trkpt lat="50.4716" lon="3.43897">
        <ele>17.32309</ele>
        <time>2022-07-16T13:56:04.577Z</time>
      </trkpt>
      <trkpt lat="50.47198" lon="3.43852">
        <ele>17.113392</ele>
        <time>2022-07-16T13:56:10.973Z</time>
      </trkpt>
      <trkpt lat="50.47227" lon="3.43795">
        <ele>17.02935</ele>
        <time>2022-07-16T13:56:17.420Z</time>
      </trkpt>
      <trkpt lat="50.47256" lon="3.43705">
        <ele>16.920051</ele>
        <time>2022-07-16T13:56:26.423Z</time>
      </trkpt>
      <trkpt lat="50.47315" lon="3.43617">
        <ele>16.836194</ele>
        <time>2022-07-16T13:56:38.236Z</time>
      </trkpt>
      <trkpt lat="50.47333" lon="3.43582">
        <ele>16.935668</ele>
        <time>2022-07-16T13:56:42.714Z</time>
      </trkpt>
      <trkpt lat="50.47355" lon="3.43514">
        <ele>17.104108</ele>
        <time>2022-07-16T13:56:50.675Z</time>
      </trkpt>
      <trkpt lat="50.4737" lon="3.43392">
        <ele>17.376043</ele>
        <time>2022-07-16T13:57:03.742Z</time>
      </trkpt>
      <trkpt lat="50.47378" lon="3.43333">
        <ele>17.566512</ele>
        <time>2022-07-16T13:57:10.377Z</time>
      </trkpt>
      <trkpt lat="50.47394" lon="3.43256">
        <ele>17.855198</ele>
        <time>2022-07-16T13:57:19.446Z</time>
      </trkpt>
      <trkpt lat="50.47396" lon="3.43242">
        <ele>17.904984</ele>
        <time>2022-07-16T13:57:20.990Z</time>
      </trkpt>
      <trkpt lat="50.47403" lon="3.43012">
        <ele>18.604783</ele>
        <time>2022-07-16T13:57:45.606Z</time>
      </trkpt>
      <trkpt lat="50.47407" lon="3.4291">
        <ele>18.811919</ele>
        <time>2022-07-16T13:57:55.867Z</time>
      </trkpt>
      <trkpt lat="50.47414" lon="3.42834">
        <ele>18.966679</ele>
        <time>2022-07-16T13:58:03.742Z</time>
      </trkpt>
      <trkpt lat="50.47439" lon="3.42708">
        <ele>19.044535</ele>
        <time>2022-07-16T13:58:17.109Z</time>
      </trkpt>
      <trkpt lat="50.47457" lon="3.4266">
        <ele>19.06175</ele>
        <time>2022-07-16T13:58:22.489Z</time>
      </trkpt>
      <trkpt lat="50.47445" lon="3.42656">
        <ele>19.067509</ele>
        <time>2022-07-16T13:58:24.257Z</time>
      </trkpt>
      <trkpt lat="50.47413" lon="3.42633">
        <ele>19.085025</ele>
        <time>2022-07-16T13:58:29.533Z</time>
      </trkpt>
      <trkpt lat="50.47364" lon="3.42607">
        <ele>18.917297</ele>
        <time>2022-07-16T13:58:36.442Z</time>
      </trkpt>
      <trkpt lat="50.47343" lon="3.4261">
        <ele>18.757987</ele>
        <time>2022-07-16T13:58:39.224Z</time>
      </trkpt>
      <trkpt lat="50.47335" lon="3.4259">
        <ele>18.643656</ele>
        <time>2022-07-16T13:58:41.186Z</time>
      </trkpt>
      <trkpt lat="50.47299" lon="3.42556">
        <ele>18.336018</ele>
        <time>2022-07-16T13:58:46.387Z</time>
      </trkpt>
      <trkpt lat="50.47282" lon="3.42507">
        <ele>18.06583</ele>
        <time>2022-07-16T13:58:50.832Z</time>
      </trkpt>
      <trkpt lat="50.47266" lon="3.42477">
        <ele>17.882168</ele>
        <time>2022-07-16T13:58:53.777Z</time>
      </trkpt>
      <trkpt lat="50.47184" lon="3.42343">
        <ele>17.268226</ele>
        <time>2022-07-16T13:59:08.785Z</time>
      </trkpt>
      <trkpt lat="50.47106" lon="3.42256">
        <ele>16.90022</ele>
        <time>2022-07-16T13:59:22.336Z</time>
      </trkpt>
      <trkpt lat="50.47086" lon="3.42218">
        <ele>16.923354</ele>
        <time>2022-07-16T13:59:27.161Z</time>
      </trkpt>
      <trkpt lat="50.47085" lon="3.42188">
        <ele>16.937461</ele>
        <time>2022-07-16T13:59:30.076Z</time>
      </trkpt>
      <trkpt lat="50.47118" lon="3.42056">
        <ele>17.004177</ele>
        <time>2022-07-16T13:59:44.103Z</time>
      </trkpt>
      <trkpt lat="50.47122" lon="3.42028">
        <ele>17.017602</ele>
        <time>2022-07-16T13:59:46.859Z</time>
      </trkpt>
      <trkpt lat="50.47119" lon="3.42004">
        <ele>17.010321</ele>
        <time>2022-07-16T13:59:49.223Z</time>
      </trkpt>
      <trkpt lat="50.4704" lon="3.41845">
        <ele>16.905189</ele>
        <time>2022-07-16T14:00:07.926Z</time>
      </trkpt>
      <trkpt lat="50.46996" lon="3.41775">
        <ele>16.845565</ele>
        <time>2022-07-16T14:00:16.720Z</time>
      </trkpt>
      <trkpt lat="50.46972" lon="3.41703">
        <ele>16.783424</ele>
        <time>2022-07-16T14:00:24.006Z</time>
      </trkpt>
      <trkpt lat="50.46913" lon="3.41584">
        <ele>16.668919</ele>
        <time>2022-07-16T14:00:37.831Z</time>
      </trkpt>
      <trkpt lat="50.46906" lon="3.41552">
        <ele>16.685994</ele>
        <time>2022-07-16T14:00:41.109Z</time>
      </trkpt>
      <trkpt lat="50.46901" lon="3.4149">
        <ele>16.771932</ele>
        <time>2022-07-16T14:00:47.203Z</time>
      </trkpt>
      <trkpt lat="50.46799" lon="3.4152">
        <ele>16.99633</ele>
        <time>2022-07-16T14:01:03.672Z</time>
      </trkpt>
      <trkpt lat="50.46743" lon="3.41523">
        <ele>17.113798</ele>
        <time>2022-07-16T14:01:12.871Z</time>
      </trkpt>
      <trkpt lat="50.46723" lon="3.41541">
        <ele>17.160642</ele>
        <time>2022-07-16T14:01:16.656Z</time>
      </trkpt>
      <trkpt lat="50.46557" lon="3.4176">
        <ele>17.259428</ele>
        <time>2022-07-16T14:01:49.624Z</time>
      </trkpt>
      <trkpt lat="50.46542" lon="3.41768">
        <ele>17.231912</ele>
        <time>2022-07-16T14:01:51.870Z</time>
      </trkpt>
      <trkpt lat="50.46482" lon="3.41755">
        <ele>17.130206</ele>
        <time>2022-07-16T14:02:00.282Z</time>
      </trkpt>
      <trkpt lat="50.46464" lon="3.4174">
        <ele>17.049145</ele>
        <time>2022-07-16T14:02:02.942Z</time>
      </trkpt>
      <trkpt lat="50.46444" lon="3.41715">
        <ele>16.886732</ele>
        <time>2022-07-16T14:02:06.316Z</time>
      </trkpt>
      <trkpt lat="50.46402" lon="3.41629">
        <ele>16.437856</ele>
        <time>2022-07-16T14:02:15.148Z</time>
      </trkpt>
      <trkpt lat="50.46356" lon="3.41557">
        <ele>16.018295</ele>
        <time>2022-07-16T14:02:23.375Z</time>
      </trkpt>
      <trkpt lat="50.46354" lon="3.41553">
        <ele>15.99656</ele>
        <time>2022-07-16T14:02:23.804Z</time>
      </trkpt>
      <trkpt lat="50.46334" lon="3.41513">
        <ele>15.782295</ele>
        <time>2022-07-16T14:02:27.923Z</time>
      </trkpt>
      <trkpt lat="50.46319" lon="3.41418">
        <ele>15.355604</ele>
        <time>2022-07-16T14:02:35.903Z</time>
      </trkpt>
      <trkpt lat="50.46288" lon="3.41364">
        <ele>15.041503</ele>
        <time>2022-07-16T14:02:41.781Z</time>
      </trkpt>
      <trkpt lat="50.46284" lon="3.41298">
        <ele>14.752346</ele>
        <time>2022-07-16T14:02:47.187Z</time>
      </trkpt>
      <trkpt lat="50.46295" lon="3.4122">
        <ele>14.60508</ele>
        <time>2022-07-16T14:02:53.884Z</time>
      </trkpt>
      <trkpt lat="50.46309" lon="3.41189">
        <ele>14.542403</ele>
        <time>2022-07-16T14:02:57.193Z</time>
      </trkpt>
      <trkpt lat="50.46391" lon="3.41045">
        <ele>14.282475</ele>
        <time>2022-07-16T14:03:14.840Z</time>
      </trkpt>
      <trkpt lat="50.46412" lon="3.40993">
        <ele>14.347706</ele>
        <time>2022-07-16T14:03:20.817Z</time>
      </trkpt>
      <trkpt lat="50.46424" lon="3.40929">
        <ele>14.419634</ele>
        <time>2022-07-16T14:03:27.435Z</time>
      </trkpt>
      <trkpt lat="50.46428" lon="3.40905">
        <ele>14.446518</ele>
        <time>2022-07-16T14:03:29.822Z</time>
      </trkpt>
      <trkpt lat="50.46437" lon="3.40779">
        <ele>14.610145</ele>
        <time>2022-07-16T14:03:42.957Z</time>
      </trkpt>
      <trkpt lat="50.46425" lon="3.4062">
        <ele>15.006106</ele>
        <time>2022-07-16T14:03:59.564Z</time>
      </trkpt>
      <trkpt lat="50.46428" lon="3.40605">
        <ele>15.04428</ele>
        <time>2022-07-16T14:04:01.480Z</time>
      </trkpt>
      <trkpt lat="50.46418" lon="3.40602">
        <ele>15.083693</ele>
        <time>2022-07-16T14:04:03.006Z</time>
      </trkpt>
      <trkpt lat="50.464" lon="3.40499">
        <ele>15.317419</ele>
        <time>2022-07-16T14:04:17.716Z</time>
      </trkpt>
      <trkpt lat="50.46392" lon="3.4048">
        <ele>15.355231</ele>
        <time>2022-07-16T14:04:20.740Z</time>
      </trkpt>
      <trkpt lat="50.46385" lon="3.40475">
        <ele>15.375132</ele>
        <time>2022-07-16T14:04:22.410Z</time>
      </trkpt>
      <trkpt lat="50.46135" lon="3.40489">
        <ele>15.898019</ele>
        <time>2022-07-16T14:05:15.448Z</time>
      </trkpt>
      <trkpt lat="50.46013" lon="3.40467">
        <ele>15.969657</ele>
        <time>2022-07-16T14:05:40.228Z</time>
      </trkpt>
      <trkpt lat="50.46007" lon="3.40458">
        <ele>15.96583</ele>
        <time>2022-07-16T14:05:41.900Z</time>
      </trkpt>
      <trkpt lat="50.46033" lon="3.40426">
        <ele>15.950822</ele>
        <time>2022-07-16T14:05:48.448Z</time>
      </trkpt>
      <trkpt lat="50.46051" lon="3.40392">
        <ele>15.938303</ele>
        <time>2022-07-16T14:05:53.915Z</time>
      </trkpt>
      <trkpt lat="50.46105" lon="3.40204">
        <ele>16.087544</ele>
        <time>2022-07-16T14:06:20.494Z</time>
      </trkpt>
      <trkpt lat="50.46122" lon="3.40178">
        <ele>16.139384</ele>
        <time>2022-07-16T14:06:25.484Z</time>
      </trkpt>
      <trkpt lat="50.46155" lon="3.40152">
        <ele>16.220857</ele>
        <time>2022-07-16T14:06:33.518Z</time>
      </trkpt>
      <trkpt lat="50.46169" lon="3.40143">
        <ele>16.25472</ele>
        <time>2022-07-16T14:06:36.884Z</time>
      </trkpt>
      <trkpt lat="50.46181" lon="3.40135">
        <ele>16.283416</ele>
        <time>2022-07-16T14:06:39.713Z</time>
      </trkpt>
      <trkpt lat="50.46169" lon="3.40143">
        <ele>16.313331</ele>
        <time>2022-07-16T14:06:42.606Z</time>
      </trkpt>
      <trkpt lat="50.46155" lon="3.40152">
        <ele>16.365114</ele>
        <time>2022-07-16T14:06:45.941Z</time>
      </trkpt>
      <trkpt lat="50.46174" lon="3.40043">
        <ele>16.607513</ele>
        <time>2022-07-16T14:06:57.825Z</time>
      </trkpt>
      <trkpt lat="50.46175" lon="3.40013">
        <ele>16.671742</ele>
        <time>2022-07-16T14:07:00.947Z</time>
      </trkpt>
      <trkpt lat="50.46159" lon="3.39885">
        <ele>16.945724</ele>
        <time>2022-07-16T14:07:14.214Z</time>
      </trkpt>
      <trkpt lat="50.4616" lon="3.39852">
        <ele>17.005214</ele>
        <time>2022-07-16T14:07:17.433Z</time>
      </trkpt>
      <trkpt lat="50.46181" lon="3.39747">
        <ele>17.204428</ele>
        <time>2022-07-16T14:07:28.183Z</time>
      </trkpt>
      <trkpt lat="50.46186" lon="3.39706">
        <ele>17.280453</ele>
        <time>2022-07-16T14:07:32.397Z</time>
      </trkpt>
      <trkpt lat="50.46165" lon="3.39605">
        <ele>17.536324</ele>
        <time>2022-07-16T14:07:43.442Z</time>
      </trkpt>
      <trkpt lat="50.46088" lon="3.39317">
        <ele>18.705228</ele>
        <time>2022-07-16T14:08:19.148Z</time>
      </trkpt>
      <trkpt lat="50.46052" lon="3.39033">
        <ele>18.664576</ele>
        <time>2022-07-16T14:08:46.573Z</time>
      </trkpt>
      <trkpt lat="50.46042" lon="3.3866">
        <ele>17.274763</ele>
        <time>2022-07-16T14:09:15.924Z</time>
      </trkpt>
      <trkpt lat="50.46088" lon="3.38092">
        <ele>17.077624</ele>
        <time>2022-07-16T14:10:11.912Z</time>
      </trkpt>
      <trkpt lat="50.46091" lon="3.3791">
        <ele>16.86196</ele>
        <time>2022-07-16T14:10:27.928Z</time>
      </trkpt>
      <trkpt lat="50.46092" lon="3.37823">
        <ele>16.639419</ele>
        <time>2022-07-16T14:10:35.237Z</time>
      </trkpt>
      <trkpt lat="50.46108" lon="3.37683">
        <ele>16.294501</ele>
        <time>2022-07-16T14:10:47.278Z</time>
      </trkpt>
      <trkpt lat="50.46123" lon="3.37486">
        <ele>16.338273</ele>
        <time>2022-07-16T14:11:05.780Z</time>
      </trkpt>
      <trkpt lat="50.46093" lon="3.37256">
        <ele>16.757067</ele>
        <time>2022-07-16T14:11:30.622Z</time>
      </trkpt>
      <trkpt lat="50.46022" lon="3.37364">
        <ele>17.115854</ele>
        <time>2022-07-16T14:11:46.878Z</time>
      </trkpt>
      <trkpt lat="50.45998" lon="3.37388">
        <ele>17.176297</ele>
        <time>2022-07-16T14:11:51.403Z</time>
      </trkpt>
      <trkpt lat="50.45799" lon="3.37473">
        <ele>17.474007</ele>
        <time>2022-07-16T14:12:23.413Z</time>
      </trkpt>
      <trkpt lat="50.45783" lon="3.37351">
        <ele>17.49491</ele>
        <time>2022-07-16T14:12:35.207Z</time>
      </trkpt>
      <trkpt lat="50.45776" lon="3.37329">
        <ele>17.498998</ele>
        <time>2022-07-16T14:12:37.386Z</time>
      </trkpt>
      <trkpt lat="50.45753" lon="3.37303">
        <ele>17.446526</ele>
        <time>2022-07-16T14:12:41.241Z</time>
      </trkpt>
      <trkpt lat="50.45675" lon="3.37241">
        <ele>17.16626</ele>
        <time>2022-07-16T14:12:53.182Z</time>
      </trkpt>
      <trkpt lat="50.45646" lon="3.37213">
        <ele>17.057595</ele>
        <time>2022-07-16T14:12:57.661Z</time>
      </trkpt>
      <trkpt lat="50.45587" lon="3.37176">
        <ele>16.923775</ele>
        <time>2022-07-16T14:13:06.448Z</time>
      </trkpt>
      <trkpt lat="50.45509" lon="3.37077">
        <ele>16.904481</ele>
        <time>2022-07-16T14:13:21.321Z</time>
      </trkpt>
      <trkpt lat="50.45482" lon="3.37016">
        <ele>16.895454</ele>
        <time>2022-07-16T14:13:28.705Z</time>
      </trkpt>
      <trkpt lat="50.45443" lon="3.36856">
        <ele>16.952409</ele>
        <time>2022-07-16T14:13:45.281Z</time>
      </trkpt>
      <trkpt lat="50.4536" lon="3.36728">
        <ele>17.05686</ele>
        <time>2022-07-16T14:14:02.477Z</time>
      </trkpt>
      <trkpt lat="50.45328" lon="3.36741">
        <ele>17.109831</ele>
        <time>2022-07-16T14:14:07.355Z</time>
      </trkpt>
      <trkpt lat="50.45302" lon="3.36741">
        <ele>17.151814</ele>
        <time>2022-07-16T14:14:11.293Z</time>
      </trkpt>
      <trkpt lat="50.45256" lon="3.36676">
        <ele>17.249791</ele>
        <time>2022-07-16T14:14:21.052Z</time>
      </trkpt>
      <trkpt lat="50.4523" lon="3.36632">
        <ele>17.323982</ele>
        <time>2022-07-16T14:14:27.259Z</time>
      </trkpt>
      <trkpt lat="50.45206" lon="3.36598">
        <ele>17.405636</ele>
        <time>2022-07-16T14:14:32.580Z</time>
      </trkpt>
      <trkpt lat="50.45155" lon="3.36557">
        <ele>17.551517</ele>
        <time>2022-07-16T14:14:41.760Z</time>
      </trkpt>
      <trkpt lat="50.45141" lon="3.36548">
        <ele>17.589838</ele>
        <time>2022-07-16T14:14:44.119Z</time>
      </trkpt>
      <trkpt lat="50.45119" lon="3.36534">
        <ele>17.650141</ele>
        <time>2022-07-16T14:14:47.822Z</time>
      </trkpt>
      <trkpt lat="50.45104" lon="3.36524">
        <ele>17.690813</ele>
        <time>2022-07-16T14:14:50.266Z</time>
      </trkpt>
      <trkpt lat="50.45061" lon="3.36495">
        <ele>17.800994</ele>
        <time>2022-07-16T14:14:57.534Z</time>
      </trkpt>
      <trkpt lat="50.44947" lon="3.36405">
        <ele>18.08839</ele>
        <time>2022-07-16T14:15:17.477Z</time>
      </trkpt>
      <trkpt lat="50.44934" lon="3.36406">
        <ele>18.116979</ele>
        <time>2022-07-16T14:15:19.567Z</time>
      </trkpt>
      <trkpt lat="50.44881" lon="3.36439">
        <ele>18.29529</ele>
        <time>2022-07-16T14:15:28.806Z</time>
      </trkpt>
      <trkpt lat="50.44853" lon="3.36447">
        <ele>18.390713</ele>
        <time>2022-07-16T14:15:33.503Z</time>
      </trkpt>
      <trkpt lat="50.44805" lon="3.36435">
        <ele>18.552752</ele>
        <time>2022-07-16T14:15:41.305Z</time>
      </trkpt>
      <trkpt lat="50.44761" lon="3.36445">
        <ele>18.704638</ele>
        <time>2022-07-16T14:15:48.689Z</time>
      </trkpt>
      <trkpt lat="50.44735" lon="3.36392">
        <ele>18.784618</ele>
        <time>2022-07-16T14:15:55.466Z</time>
      </trkpt>
      <trkpt lat="50.44723" lon="3.36348">
        <ele>18.820978</ele>
        <time>2022-07-16T14:16:00.123Z</time>
      </trkpt>
      <trkpt lat="50.44672" lon="3.36177">
        <ele>18.963893</ele>
        <time>2022-07-16T14:16:18.140Z</time>
      </trkpt>
      <trkpt lat="50.44651" lon="3.36081">
        <ele>18.997274</ele>
        <time>2022-07-16T14:16:28.300Z</time>
      </trkpt>
      <trkpt lat="50.44625" lon="3.36019">
        <ele>19.021229</ele>
        <time>2022-07-16T14:16:35.505Z</time>
      </trkpt>
      <trkpt lat="50.44583" lon="3.36032">
        <ele>19.042984</ele>
        <time>2022-07-16T14:16:44.115Z</time>
      </trkpt>
      <trkpt lat="50.44543" lon="3.36044">
        <ele>18.998624</ele>
        <time>2022-07-16T14:16:52.199Z</time>
      </trkpt>
      <trkpt lat="50.44525" lon="3.36036">
        <ele>18.927683</ele>
        <time>2022-07-16T14:16:55.817Z</time>
      </trkpt>
      <trkpt lat="50.44407" lon="3.35863">
        <ele>18.346773</ele>
        <time>2022-07-16T14:17:25.963Z</time>
      </trkpt>
      <trkpt lat="50.44402" lon="3.35855">
        <ele>18.338551</ele>
        <time>2022-07-16T14:17:26.825Z</time>
      </trkpt>
      <trkpt lat="50.44363" lon="3.35812">
        <ele>18.280471</ele>
        <time>2022-07-16T14:17:33.148Z</time>
      </trkpt>
      <trkpt lat="50.44295" lon="3.35685">
        <ele>18.151645</ele>
        <time>2022-07-16T14:17:49.256Z</time>
      </trkpt>
      <trkpt lat="50.44227" lon="3.35546">
        <ele>18.336788</ele>
        <time>2022-07-16T14:18:06.795Z</time>
      </trkpt>
      <trkpt lat="50.4421" lon="3.35501">
        <ele>18.39627</ele>
        <time>2022-07-16T14:18:12.097Z</time>
      </trkpt>
      <trkpt lat="50.44183" lon="3.35427">
        <ele>18.416407</ele>
        <time>2022-07-16T14:18:20.635Z</time>
      </trkpt>
      <trkpt lat="50.44154" lon="3.3533">
        <ele>18.200996</ele>
        <time>2022-07-16T14:18:30.300Z</time>
      </trkpt>
      <trkpt lat="50.44142" lon="3.35224">
        <ele>17.983411</ele>
        <time>2022-07-16T14:18:39.339Z</time>
      </trkpt>
      <trkpt lat="50.44139" lon="3.35177">
        <ele>17.878624</ele>
        <time>2022-07-16T14:18:43.315Z</time>
      </trkpt>
      <trkpt lat="50.44145" lon="3.35123">
        <ele>17.643064</ele>
        <time>2022-07-16T14:18:47.835Z</time>
      </trkpt>
      <trkpt lat="50.44148" lon="3.35114">
        <ele>17.601037</ele>
        <time>2022-07-16T14:18:48.631Z</time>
      </trkpt>
      <trkpt lat="50.44157" lon="3.35099">
        <ele>17.515438</ele>
        <time>2022-07-16T14:18:50.899Z</time>
      </trkpt>
      <trkpt lat="50.44173" lon="3.35085">
        <ele>17.389512</ele>
        <time>2022-07-16T14:18:54.235Z</time>
      </trkpt>
      <trkpt lat="50.44205" lon="3.35062">
        <ele>17.151111</ele>
        <time>2022-07-16T14:19:00.544Z</time>
      </trkpt>
      <trkpt lat="50.44233" lon="3.35031">
        <ele>16.922199</ele>
        <time>2022-07-16T14:19:06.576Z</time>
      </trkpt>
      <trkpt lat="50.44244" lon="3.35015">
        <ele>16.819408</ele>
        <time>2022-07-16T14:19:09.361Z</time>
      </trkpt>
      <trkpt lat="50.44277" lon="3.34942">
        <ele>16.605215</ele>
        <time>2022-07-16T14:19:19.662Z</time>
      </trkpt>
      <trkpt lat="50.443" lon="3.34831">
        <ele>16.447437</ele>
        <time>2022-07-16T14:19:33.917Z</time>
      </trkpt>
      <trkpt lat="50.44306" lon="3.34795">
        <ele>16.396368</ele>
        <time>2022-07-16T14:19:38.806Z</time>
      </trkpt>
      <trkpt lat="50.44324" lon="3.3473">
        <ele>16.301102</ele>
        <time>2022-07-16T14:19:47.948Z</time>
      </trkpt>
      <trkpt lat="50.4434" lon="3.34696">
        <ele>16.388174</ele>
        <time>2022-07-16T14:19:53.746Z</time>
      </trkpt>
      <trkpt lat="50.44367" lon="3.34654">
        <ele>16.517594</ele>
        <time>2022-07-16T14:20:02.343Z</time>
      </trkpt>
      <trkpt lat="50.44442" lon="3.34581">
        <ele>16.807569</ele>
        <time>2022-07-16T14:20:21.322Z</time>
      </trkpt>
      <trkpt lat="50.44483" lon="3.34549">
        <ele>16.959417</ele>
        <time>2022-07-16T14:20:31.123Z</time>
      </trkpt>
      <trkpt lat="50.44487" lon="3.34549">
        <ele>16.973802</ele>
        <time>2022-07-16T14:20:32.031Z</time>
      </trkpt>
      <trkpt lat="50.445" lon="3.34534">
        <ele>17.028856</ele>
        <time>2022-07-16T14:20:35.600Z</time>
      </trkpt>
      <trkpt lat="50.44501" lon="3.34515">
        <ele>17.071146</ele>
        <time>2022-07-16T14:20:38.272Z</time>
      </trkpt>
      <trkpt lat="50.44504" lon="3.34494">
        <ele>17.116514</ele>
        <time>2022-07-16T14:20:41.160Z</time>
      </trkpt>
      <trkpt lat="50.44518" lon="3.34454">
        <ele>17.213567</ele>
        <time>2022-07-16T14:20:47.331Z</time>
      </trkpt>
      <trkpt lat="50.44534" lon="3.34406">
        <ele>17.328492</ele>
        <time>2022-07-16T14:20:54.801Z</time>
      </trkpt>
      <trkpt lat="50.44581" lon="3.34216">
        <ele>17.66998</ele>
        <time>2022-07-16T14:21:22.816Z</time>
      </trkpt>
      <trkpt lat="50.44585" lon="3.34205">
        <ele>17.688339</ele>
        <time>2022-07-16T14:21:24.758Z</time>
      </trkpt>
      <trkpt lat="50.44605" lon="3.34144">
        <ele>17.783207</ele>
        <time>2022-07-16T14:21:33.989Z</time>
      </trkpt>
      <trkpt lat="50.44629" lon="3.34086">
        <ele>17.878025</ele>
        <time>2022-07-16T14:21:42.950Z</time>
      </trkpt>
      <trkpt lat="50.44688" lon="3.33982">
        <ele>17.844266</ele>
        <time>2022-07-16T14:22:00.817Z</time>
      </trkpt>
      <trkpt lat="50.44753" lon="3.33904">
        <ele>17.800262</ele>
        <time>2022-07-16T14:22:16.961Z</time>
      </trkpt>
      <trkpt lat="50.4477" lon="3.339">
        <ele>17.790381</ele>
        <time>2022-07-16T14:22:20.350Z</time>
      </trkpt>
      <trkpt lat="50.44785" lon="3.33905">
        <ele>17.77896</ele>
        <time>2022-07-16T14:22:23.290Z</time>
      </trkpt>
      <trkpt lat="50.44794" lon="3.33911">
        <ele>17.771043</ele>
        <time>2022-07-16T14:22:25.310Z</time>
      </trkpt>
      <trkpt lat="50.44798" lon="3.3392">
        <ele>17.765615</ele>
        <time>2022-07-16T14:22:26.716Z</time>
      </trkpt>
      <trkpt lat="50.4481" lon="3.3393">
        <ele>17.755201</ele>
        <time>2022-07-16T14:22:29.402Z</time>
      </trkpt>
      <trkpt lat="50.44823" lon="3.33928">
        <ele>17.74478</ele>
        <time>2022-07-16T14:22:32.029Z</time>
      </trkpt>
      <trkpt lat="50.44825" lon="3.33926">
        <ele>17.74323</ele>
        <time>2022-07-16T14:22:32.408Z</time>
      </trkpt>
      <trkpt lat="50.44828" lon="3.33922">
        <ele>17.740165</ele>
        <time>2022-07-16T14:22:33.176Z</time>
      </trkpt>
      <trkpt lat="50.4484" lon="3.3392">
        <ele>17.730922</ele>
        <time>2022-07-16T14:22:34.901Z</time>
      </trkpt>
      <trkpt lat="50.44872" lon="3.33927">
        <ele>17.706402</ele>
        <time>2022-07-16T14:22:39.464Z</time>
      </trkpt>
      <trkpt lat="50.44886" lon="3.33934">
        <ele>17.694347</ele>
        <time>2022-07-16T14:22:41.750Z</time>
      </trkpt>
      <trkpt lat="50.44897" lon="3.33939">
        <ele>17.686105</ele>
        <time>2022-07-16T14:22:43.326Z</time>
      </trkpt>
      <trkpt lat="50.44886" lon="3.33934">
        <ele>17.677862</ele>
        <time>2022-07-16T14:22:44.926Z</time>
      </trkpt>
      <trkpt lat="50.44872" lon="3.33927">
        <ele>17.665808</ele>
        <time>2022-07-16T14:22:47.273Z</time>
      </trkpt>
      <trkpt lat="50.44843" lon="3.33903">
        <ele>17.656111</ele>
        <time>2022-07-16T14:22:52.089Z</time>
      </trkpt>
      <trkpt lat="50.44835" lon="3.33889">
        <ele>17.657764</ele>
        <time>2022-07-16T14:22:53.886Z</time>
      </trkpt>
      <trkpt lat="50.44832" lon="3.33879">
        <ele>17.658748</ele>
        <time>2022-07-16T14:22:55.328Z</time>
      </trkpt>
      <trkpt lat="50.44829" lon="3.33855">
        <ele>17.660862</ele>
        <time>2022-07-16T14:22:57.600Z</time>
      </trkpt>
      <trkpt lat="50.44859" lon="3.33681">
        <ele>17.676417</ele>
        <time>2022-07-16T14:23:14.497Z</time>
      </trkpt>
      <trkpt lat="50.44919" lon="3.33396">
        <ele>18.082719</ele>
        <time>2022-07-16T14:23:44.931Z</time>
      </trkpt>
      <trkpt lat="50.45054" lon="3.3275">
        <ele>18.841491</ele>
        <time>2022-07-16T14:24:52.279Z</time>
      </trkpt>
      <trkpt lat="50.45064" lon="3.32701">
        <ele>18.874584</ele>
        <time>2022-07-16T14:24:57.349Z</time>
      </trkpt>
      <trkpt lat="50.45087" lon="3.32607">
        <ele>18.93874</ele>
        <time>2022-07-16T14:25:06.718Z</time>
      </trkpt>
      <trkpt lat="50.45092" lon="3.32584">
        <ele>18.946589</ele>
        <time>2022-07-16T14:25:08.945Z</time>
      </trkpt>
      <trkpt lat="50.45131" lon="3.32385">
        <ele>18.752343</ele>
        <time>2022-07-16T14:25:27.601Z</time>
      </trkpt>
      <trkpt lat="50.45255" lon="3.31793">
        <ele>18.584222</ele>
        <time>2022-07-16T14:26:25.889Z</time>
      </trkpt>
      <trkpt lat="50.45492" lon="3.31891">
        <ele>19.035072</ele>
        <time>2022-07-16T14:27:04.765Z</time>
      </trkpt>
      <trkpt lat="50.45542" lon="3.31912">
        <ele>19.043596</ele>
        <time>2022-07-16T14:27:12.481Z</time>
      </trkpt>
      <trkpt lat="50.45653" lon="3.31957">
        <ele>18.929529</ele>
        <time>2022-07-16T14:27:28.796Z</time>
      </trkpt>
      <trkpt lat="50.45666" lon="3.31953">
        <ele>18.892489</ele>
        <time>2022-07-16T14:27:30.595Z</time>
      </trkpt>
      <trkpt lat="50.45694" lon="3.32174">
        <ele>18.588816</ele>
        <time>2022-07-16T14:27:50.145Z</time>
      </trkpt>
      <trkpt lat="50.45693" lon="3.32203">
        <ele>18.620595</ele>
        <time>2022-07-16T14:27:52.902Z</time>
      </trkpt>
      <trkpt lat="50.45681" lon="3.32225">
        <ele>18.651855</ele>
        <time>2022-07-16T14:27:55.712Z</time>
      </trkpt>
      <trkpt lat="50.45455" lon="3.32452">
        <ele>19.139263</ele>
        <time>2022-07-16T14:28:38.851Z</time>
      </trkpt>
      <trkpt lat="50.45437" lon="3.32481">
        <ele>19.186527</ele>
        <time>2022-07-16T14:28:42.558Z</time>
      </trkpt>
      <trkpt lat="50.45423" lon="3.32538">
        <ele>19.120938</ele>
        <time>2022-07-16T14:28:48.072Z</time>
      </trkpt>
      <trkpt lat="50.45347" lon="3.32876">
        <ele>18.862594</ele>
        <time>2022-07-16T14:29:19.538Z</time>
      </trkpt>
      <trkpt lat="50.45278" lon="3.33166">
        <ele>19.133144</ele>
        <time>2022-07-16T14:29:52.860Z</time>
      </trkpt>
      <trkpt lat="50.45267" lon="3.33284">
        <ele>19.23188</ele>
        <time>2022-07-16T14:30:03.868Z</time>
      </trkpt>
      <trkpt lat="50.45264" lon="3.33303">
        <ele>19.18865</ele>
        <time>2022-07-16T14:30:05.429Z</time>
      </trkpt>
      <trkpt lat="50.45257" lon="3.33354">
        <ele>18.908724</ele>
        <time>2022-07-16T14:30:09.647Z</time>
      </trkpt>
      <trkpt lat="50.45265" lon="3.33419">
        <ele>18.551761</ele>
        <time>2022-07-16T14:30:14.758Z</time>
      </trkpt>
      <trkpt lat="50.45276" lon="3.33447">
        <ele>18.377507</ele>
        <time>2022-07-16T14:30:17.294Z</time>
      </trkpt>
      <trkpt lat="50.45356" lon="3.33603">
        <ele>17.652255</ele>
        <time>2022-07-16T14:30:33.118Z</time>
      </trkpt>
      <trkpt lat="50.45391" lon="3.33903">
        <ele>17.746128</ele>
        <time>2022-07-16T14:31:03.166Z</time>
      </trkpt>
      <trkpt lat="50.45404" lon="3.34102">
        <ele>18.285056</ele>
        <time>2022-07-16T14:31:24.989Z</time>
      </trkpt>
      <trkpt lat="50.45424" lon="3.34275">
        <ele>18.78942</ele>
        <time>2022-07-16T14:31:43.934Z</time>
      </trkpt>
      <trkpt lat="50.45443" lon="3.34433">
        <ele>19.063269</ele>
        <time>2022-07-16T14:32:00.240Z</time>
      </trkpt>
      <trkpt lat="50.45442" lon="3.34454">
        <ele>19.069922</ele>
        <time>2022-07-16T14:32:02.341Z</time>
      </trkpt>
      <trkpt lat="50.45378" lon="3.34554">
        <ele>19.114415</ele>
        <time>2022-07-16T14:32:15.697Z</time>
      </trkpt>
      <trkpt lat="50.45376" lon="3.3473">
        <ele>18.986828</ele>
        <time>2022-07-16T14:32:31.540Z</time>
      </trkpt>
      <trkpt lat="50.45364" lon="3.34789">
        <ele>18.917599</ele>
        <time>2022-07-16T14:32:37.254Z</time>
      </trkpt>
      <trkpt lat="50.45374" lon="3.34791">
        <ele>18.899973</ele>
        <time>2022-07-16T14:32:38.722Z</time>
      </trkpt>
      <trkpt lat="50.45545" lon="3.34858">
        <ele>18.697351</ele>
        <time>2022-07-16T14:33:03.711Z</time>
      </trkpt>
      <trkpt lat="50.4558" lon="3.34858">
        <ele>18.66459</ele>
        <time>2022-07-16T14:33:08.877Z</time>
      </trkpt>
      <trkpt lat="50.45639" lon="3.3484">
        <ele>18.691564</ele>
        <time>2022-07-16T14:33:18.060Z</time>
      </trkpt>
      <trkpt lat="50.45663" lon="3.34832">
        <ele>18.715655</ele>
        <time>2022-07-16T14:33:21.969Z</time>
      </trkpt>
      <trkpt lat="50.45665" lon="3.3487">
        <ele>18.739479</ele>
        <time>2022-07-16T14:33:25.759Z</time>
      </trkpt>
      <trkpt lat="50.45667" lon="3.34888">
        <ele>18.75048</ele>
        <time>2022-07-16T14:33:27.515Z</time>
      </trkpt>
      <trkpt lat="50.45675" lon="3.34951">
        <ele>18.789745</ele>
        <time>2022-07-16T14:33:33.708Z</time>
      </trkpt>
      <trkpt lat="50.45711" lon="3.35041">
        <ele>18.742696</ele>
        <time>2022-07-16T14:33:43.937Z</time>
      </trkpt>
      <trkpt lat="50.45728" lon="3.35098">
        <ele>18.648708</ele>
        <time>2022-07-16T14:33:49.874Z</time>
      </trkpt>
      <trkpt lat="50.45819" lon="3.35399">
        <ele>17.883704</ele>
        <time>2022-07-16T14:34:18.617Z</time>
      </trkpt>
      <trkpt lat="50.45863" lon="3.35515">
        <ele>17.512227</ele>
        <time>2022-07-16T14:34:29.597Z</time>
      </trkpt>
      <trkpt lat="50.45878" lon="3.35576">
        <ele>17.461353</ele>
        <time>2022-07-16T14:34:35.053Z</time>
      </trkpt>
      <trkpt lat="50.45877" lon="3.35628">
        <ele>17.420141</ele>
        <time>2022-07-16T14:34:39.658Z</time>
      </trkpt>
      <trkpt lat="50.45867" lon="3.3571">
        <ele>17.353929</ele>
        <time>2022-07-16T14:34:47.557Z</time>
      </trkpt>
      <trkpt lat="50.45871" lon="3.35768">
        <ele>17.307793</ele>
        <time>2022-07-16T14:34:53.642Z</time>
      </trkpt>
      <trkpt lat="50.45914" lon="3.35887">
        <ele>17.576885</ele>
        <time>2022-07-16T14:35:07.805Z</time>
      </trkpt>
      <trkpt lat="50.45927" lon="3.3591">
        <ele>17.640761</ele>
        <time>2022-07-16T14:35:11.149Z</time>
      </trkpt>
      <trkpt lat="50.45956" lon="3.3595">
        <ele>17.764377</ele>
        <time>2022-07-16T14:35:17.677Z</time>
      </trkpt>
      <trkpt lat="50.45978" lon="3.3598">
        <ele>17.857518</ele>
        <time>2022-07-16T14:35:22.273Z</time>
      </trkpt>
      <trkpt lat="50.4599" lon="3.35997">
        <ele>17.881541</ele>
        <time>2022-07-16T14:35:24.808Z</time>
      </trkpt>
      <trkpt lat="50.46094" lon="3.36139">
        <ele>17.87009</ele>
        <time>2022-07-16T14:35:44.656Z</time>
      </trkpt>
      <trkpt lat="50.46167" lon="3.36227">
        <ele>18.039953</ele>
        <time>2022-07-16T14:35:58.637Z</time>
      </trkpt>
      <trkpt lat="50.4624" lon="3.36313">
        <ele>18.305812</ele>
        <time>2022-07-16T14:36:13.723Z</time>
      </trkpt>
      <trkpt lat="50.46281" lon="3.36376">
        <ele>18.452517</ele>
        <time>2022-07-16T14:36:23.248Z</time>
      </trkpt>
      <trkpt lat="50.46322" lon="3.36447">
        <ele>18.582886</ele>
        <time>2022-07-16T14:36:32.965Z</time>
      </trkpt>
      <trkpt lat="50.46369" lon="3.36532">
        <ele>18.739028</ele>
        <time>2022-07-16T14:36:44.187Z</time>
      </trkpt>
      <trkpt lat="50.46436" lon="3.36699">
        <ele>18.498888</ele>
        <time>2022-07-16T14:37:01.735Z</time>
      </trkpt>
      <trkpt lat="50.46456" lon="3.36723">
        <ele>18.430829</ele>
        <time>2022-07-16T14:37:05.259Z</time>
      </trkpt>
      <trkpt lat="50.46477" lon="3.36729">
        <ele>18.374937</ele>
        <time>2022-07-16T14:37:08.185Z</time>
      </trkpt>
      <trkpt lat="50.46498" lon="3.36745">
        <ele>18.311522</ele>
        <time>2022-07-16T14:37:11.297Z</time>
      </trkpt>
      <trkpt lat="50.46563" lon="3.36831">
        <ele>18.001384</ele>
        <time>2022-07-16T14:37:22.756Z</time>
      </trkpt>
      <trkpt lat="50.46696" lon="3.3725">
        <ele>16.993073</ele>
        <time>2022-07-16T14:38:03.281Z</time>
      </trkpt>
      <trkpt lat="50.46739" lon="3.37382">
        <ele>16.921827</ele>
        <time>2022-07-16T14:38:17.069Z</time>
      </trkpt>
      <trkpt lat="50.46775" lon="3.37462">
        <ele>16.873894</ele>
        <time>2022-07-16T14:38:26.698Z</time>
      </trkpt>
      <trkpt lat="50.46895" lon="3.37661">
        <ele>16.932222</ele>
        <time>2022-07-16T14:38:52.746Z</time>
      </trkpt>
      <trkpt lat="50.46944" lon="3.37741">
        <ele>17.016419</ele>
        <time>2022-07-16T14:39:03.329Z</time>
      </trkpt>
      <trkpt lat="50.46987" lon="3.3782">
        <ele>17.103958</ele>
        <time>2022-07-16T14:39:13.374Z</time>
      </trkpt>
      <trkpt lat="50.47001" lon="3.37859">
        <ele>17.141654</ele>
        <time>2022-07-16T14:39:17.717Z</time>
      </trkpt>
      <trkpt lat="50.4704" lon="3.38072">
        <ele>17.513073</ele>
        <time>2022-07-16T14:39:40.202Z</time>
      </trkpt>
      <trkpt lat="50.47058" lon="3.38139">
        <ele>17.646736</ele>
        <time>2022-07-16T14:39:47.643Z</time>
      </trkpt>
      <trkpt lat="50.47123" lon="3.38255">
        <ele>18.009462</ele>
        <time>2022-07-16T14:40:03.705Z</time>
      </trkpt>
      <trkpt lat="50.4717" lon="3.38321">
        <ele>18.252396</ele>
        <time>2022-07-16T14:40:14.184Z</time>
      </trkpt>
      <trkpt lat="50.4728" lon="3.38446">
        <ele>18.489226</ele>
        <time>2022-07-16T14:40:35.950Z</time>
      </trkpt>
      <trkpt lat="50.47352" lon="3.38491">
        <ele>18.566972</ele>
        <time>2022-07-16T14:40:47.255Z</time>
      </trkpt>
      <trkpt lat="50.47359" lon="3.38487">
        <ele>18.551916</ele>
        <time>2022-07-16T14:40:48.233Z</time>
      </trkpt>
      <trkpt lat="50.47484" lon="3.38564">
        <ele>18.168071</ele>
        <time>2022-07-16T14:41:14.051Z</time>
      </trkpt>
      <trkpt lat="50.4749" lon="3.38567">
        <ele>18.149108</ele>
        <time>2022-07-16T14:41:15.322Z</time>
      </trkpt>
      <trkpt lat="50.47519" lon="3.38585">
        <ele>18.061784</ele>
        <time>2022-07-16T14:41:21.075Z</time>
      </trkpt>
      <trkpt lat="50.47584" lon="3.38612">
        <ele>17.832259</ele>
        <time>2022-07-16T14:41:33.752Z</time>
      </trkpt>
      <trkpt lat="50.47626" lon="3.38618">
        <ele>17.685642</ele>
        <time>2022-07-16T14:41:41.839Z</time>
      </trkpt>
      <trkpt lat="50.47801" lon="3.38601">
        <ele>17.342396</ele>
        <time>2022-07-16T14:42:15.648Z</time>
      </trkpt>
      <trkpt lat="50.47818" lon="3.38613">
        <ele>17.325404</ele>
        <time>2022-07-16T14:42:19.317Z</time>
      </trkpt>
      <trkpt lat="50.47948" lon="3.3879">
        <ele>17.303137</ele>
        <time>2022-07-16T14:42:54.991Z</time>
      </trkpt>
      <trkpt lat="50.47931" lon="3.38891">
        <ele>17.320784</ele>
        <time>2022-07-16T14:43:08.305Z</time>
      </trkpt>
      <trkpt lat="50.47932" lon="3.38926">
        <ele>17.299993</ele>
        <time>2022-07-16T14:43:12.613Z</time>
      </trkpt>
      <trkpt lat="50.47949" lon="3.38958">
        <ele>17.275242</ele>
        <time>2022-07-16T14:43:17.688Z</time>
      </trkpt>
      <trkpt lat="50.48049" lon="3.39109">
        <ele>17.167287</ele>
        <time>2022-07-16T14:43:45.124Z</time>
      </trkpt>
      <trkpt lat="50.48091" lon="3.39168">
        <ele>17.26338</ele>
        <time>2022-07-16T14:43:57.029Z</time>
      </trkpt>
      <trkpt lat="50.48104" lon="3.39308">
        <ele>17.416906</ele>
        <time>2022-07-16T14:44:15.991Z</time>
      </trkpt>
      <trkpt lat="50.48115" lon="3.39328">
        <ele>17.445876</ele>
        <time>2022-07-16T14:44:19.842Z</time>
      </trkpt>
      <trkpt lat="50.48132" lon="3.3934">
        <ele>17.459805</ele>
        <time>2022-07-16T14:44:23.761Z</time>
      </trkpt>
      <trkpt lat="50.48162" lon="3.39398">
        <ele>17.455489</ele>
        <time>2022-07-16T14:44:33.667Z</time>
      </trkpt>
      <trkpt lat="50.48266" lon="3.39537">
        <ele>17.458702</ele>
        <time>2022-07-16T14:45:00.383Z</time>
      </trkpt>
      <trkpt lat="50.4827" lon="3.39544">
        <ele>17.464542</ele>
        <time>2022-07-16T14:45:01.529Z</time>
      </trkpt>
      <trkpt lat="50.4833" lon="3.39725">
        <ele>17.592667</ele>
        <time>2022-07-16T14:45:27.873Z</time>
      </trkpt>
      <trkpt lat="50.48358" lon="3.3984">
        <ele>18.033057</ele>
        <time>2022-07-16T14:45:45.544Z</time>
      </trkpt>
      <trkpt lat="50.48391" lon="3.39831">
        <ele>18.308554</ele>
        <time>2022-07-16T14:45:51.511Z</time>
      </trkpt>
      <trkpt lat="50.48545" lon="3.39763">
        <ele>19.635586</ele>
        <time>2022-07-16T14:46:22.031Z</time>
      </trkpt>
      <trkpt lat="50.48649" lon="3.39826">
        <ele>20.530669</ele>
        <time>2022-07-16T14:46:42.030Z</time>
      </trkpt>
      <trkpt lat="50.48698" lon="3.39865">
        <ele>20.549672</ele>
        <time>2022-07-16T14:46:50.820Z</time>
      </trkpt>
      <trkpt lat="50.4875" lon="3.39903">
        <ele>20.513224</ele>
        <time>2022-07-16T14:46:59.138Z</time>
      </trkpt>
      <trkpt lat="50.48764" lon="3.39913">
        <ele>20.503639</ele>
        <time>2022-07-16T14:47:01.256Z</time>
      </trkpt>
      <trkpt lat="50.48786" lon="3.3993">
        <ele>20.487699</ele>
        <time>2022-07-16T14:47:04.716Z</time>
      </trkpt>
      <trkpt lat="50.48814" lon="3.39832">
        <ele>20.307865</ele>
        <time>2022-07-16T14:47:13.750Z</time>
      </trkpt>
      <trkpt lat="50.48836" lon="3.39787">
        <ele>20.142811</ele>
        <time>2022-07-16T14:47:18.419Z</time>
      </trkpt>
      <trkpt lat="50.48895" lon="3.39731">
        <ele>19.828139</ele>
        <time>2022-07-16T14:47:27.384Z</time>
      </trkpt>
      <trkpt lat="50.48931" lon="3.39709">
        <ele>19.653034</ele>
        <time>2022-07-16T14:47:32.474Z</time>
      </trkpt>
      <trkpt lat="50.49109" lon="3.39681">
        <ele>19.758177</ele>
        <time>2022-07-16T14:47:59.659Z</time>
      </trkpt>
      <trkpt lat="50.49131" lon="3.39664">
        <ele>19.82571</ele>
        <time>2022-07-16T14:48:03.764Z</time>
      </trkpt>
      <trkpt lat="50.49149" lon="3.39612">
        <ele>19.93881</ele>
        <time>2022-07-16T14:48:09.956Z</time>
      </trkpt>
      <trkpt lat="50.49164" lon="3.39464">
        <ele>20.228703</ele>
        <time>2022-07-16T14:48:25.726Z</time>
      </trkpt>
      <trkpt lat="50.49175" lon="3.39411">
        <ele>20.311096</ele>
        <time>2022-07-16T14:48:31.254Z</time>
      </trkpt>
      <trkpt lat="50.4919" lon="3.39371">
        <ele>20.326552</ele>
        <time>2022-07-16T14:48:35.620Z</time>
      </trkpt>
      <trkpt lat="50.49231" lon="3.39296">
        <ele>20.359737</ele>
        <time>2022-07-16T14:48:44.856Z</time>
      </trkpt>
      <trkpt lat="50.49292" lon="3.39213">
        <ele>20.414622</ele>
        <time>2022-07-16T14:48:56.579Z</time>
      </trkpt>
      <trkpt lat="50.49424" lon="3.39113">
        <ele>20.990758</ele>
        <time>2022-07-16T14:49:20.291Z</time>
      </trkpt>
      <trkpt lat="50.49512" lon="3.3892">
        <ele>21.904253</ele>
        <time>2022-07-16T14:49:47.904Z</time>
      </trkpt>
      <trkpt lat="50.49525" lon="3.38901">
        <ele>22.015395</ele>
        <time>2022-07-16T14:49:50.870Z</time>
      </trkpt>
      <trkpt lat="50.49543" lon="3.38889">
        <ele>22.146645</ele>
        <time>2022-07-16T14:49:54.318Z</time>
      </trkpt>
      <trkpt lat="50.496" lon="3.38889">
        <ele>22.233085</ele>
        <time>2022-07-16T14:50:03.422Z</time>
      </trkpt>
      <trkpt lat="50.49776" lon="3.39064">
        <ele>21.957646</ele>
        <time>2022-07-16T14:50:31.896Z</time>
      </trkpt>
      <trkpt lat="50.49855" lon="3.39209">
        <ele>21.841023</ele>
        <time>2022-07-16T14:50:50.040Z</time>
      </trkpt>
      <trkpt lat="50.49873" lon="3.39218">
        <ele>21.838988</ele>
        <time>2022-07-16T14:50:54.102Z</time>
      </trkpt>
      <trkpt lat="50.49929" lon="3.39196">
        <ele>21.833063</ele>
        <time>2022-07-16T14:51:05.943Z</time>
      </trkpt>
      <trkpt lat="50.49982" lon="3.3917">
        <ele>21.827355</ele>
        <time>2022-07-16T14:51:17.285Z</time>
      </trkpt>
      <trkpt lat="50.50013" lon="3.39167">
        <ele>21.824134</ele>
        <time>2022-07-16T14:51:23.592Z</time>
      </trkpt>
      <trkpt lat="50.50122" lon="3.39179">
        <ele>21.704002</ele>
        <time>2022-07-16T14:51:44.458Z</time>
      </trkpt>
      <trkpt lat="50.50268" lon="3.39178">
        <ele>21.864085</ele>
        <time>2022-07-16T14:52:13.822Z</time>
      </trkpt>
      <trkpt lat="50.50296" lon="3.39198">
        <ele>21.982946</ele>
        <time>2022-07-16T14:52:20.367Z</time>
      </trkpt>
      <trkpt lat="50.504" lon="3.39398">
        <ele>23.110859</ele>
        <time>2022-07-16T14:52:58.446Z</time>
      </trkpt>
      <trkpt lat="50.50439" lon="3.39448">
        <ele>23.60594</ele>
        <time>2022-07-16T14:53:10.929Z</time>
      </trkpt>
      <trkpt lat="50.50457" lon="3.39463">
        <ele>23.812027</ele>
        <time>2022-07-16T14:53:16.082Z</time>
      </trkpt>
      <trkpt lat="50.50482" lon="3.39464">
        <ele>24.054697</ele>
        <time>2022-07-16T14:53:22.043Z</time>
      </trkpt>
      <trkpt lat="50.50554" lon="3.39381">
        <ele>25.647801</ele>
        <time>2022-07-16T14:53:45.505Z</time>
      </trkpt>
      <trkpt lat="50.50569" lon="3.39377">
        <ele>25.927139</ele>
        <time>2022-07-16T14:53:49.683Z</time>
      </trkpt>
      <trkpt lat="50.50607" lon="3.39386">
        <ele>26.625013</ele>
        <time>2022-07-16T14:54:00.803Z</time>
      </trkpt>
      <trkpt lat="50.50633" lon="3.39376">
        <ele>27.120937</ele>
        <time>2022-07-16T14:54:09.007Z</time>
      </trkpt>
      <trkpt lat="50.50734" lon="3.39277">
        <ele>29.452095</ele>
        <time>2022-07-16T14:54:43.547Z</time>
      </trkpt>
      <trkpt lat="50.50742" lon="3.39286">
        <ele>29.648821</ele>
        <time>2022-07-16T14:54:46.319Z</time>
      </trkpt>
      <trkpt lat="50.50791" lon="3.39343">
        <ele>30.857018</ele>
        <time>2022-07-16T14:55:03.242Z</time>
      </trkpt>
      <trkpt lat="50.50805" lon="3.3942">
        <ele>31.186433</ele>
        <time>2022-07-16T14:55:16.024Z</time>
      </trkpt>
      <trkpt lat="50.50829" lon="3.39568">
        <ele>31.686373</ele>
        <time>2022-07-16T14:55:37.177Z</time>
      </trkpt>
      <trkpt lat="50.50835" lon="3.39605">
        <ele>31.812553</ele>
        <time>2022-07-16T14:55:41.943Z</time>
      </trkpt>
      <trkpt lat="50.50848" lon="3.39702">
        <ele>31.632877</ele>
        <time>2022-07-16T14:55:53.946Z</time>
      </trkpt>
      <trkpt lat="50.50845" lon="3.3981">
        <ele>31.308436</ele>
        <time>2022-07-16T14:56:06.617Z</time>
      </trkpt>
      <trkpt lat="50.50841" lon="3.40038">
        <ele>30.553305</ele>
        <time>2022-07-16T14:56:32.935Z</time>
      </trkpt>
      <trkpt lat="50.50845" lon="3.40083">
        <ele>30.392001</ele>
        <time>2022-07-16T14:56:38.327Z</time>
      </trkpt>
      <trkpt lat="50.50855" lon="3.40122">
        <ele>30.240071</ele>
        <time>2022-07-16T14:56:43.354Z</time>
      </trkpt>
      <trkpt lat="50.50896" lon="3.40248">
        <ele>29.614379</ele>
        <time>2022-07-16T14:56:59.911Z</time>
      </trkpt>
      <trkpt lat="50.5111" lon="3.40911">
        <ele>25.731516</ele>
        <time>2022-07-16T14:58:23.444Z</time>
      </trkpt>
      <trkpt lat="50.5116" lon="3.41081">
        <ele>25.05933</ele>
        <time>2022-07-16T14:58:44.729Z</time>
      </trkpt>
      <trkpt lat="50.51195" lon="3.412">
        <ele>24.694903</ele>
        <time>2022-07-16T14:59:00.540Z</time>
      </trkpt>
      <trkpt lat="50.51227" lon="3.4133">
        <ele>25.122007</ele>
        <time>2022-07-16T14:59:15.161Z</time>
      </trkpt>
      <trkpt lat="50.5129" lon="3.41469">
        <ele>25.710952</ele>
        <time>2022-07-16T14:59:34.593Z</time>
      </trkpt>
      <trkpt lat="50.51298" lon="3.41484">
        <ele>25.802126</ele>
        <time>2022-07-16T14:59:36.933Z</time>
      </trkpt>
      <trkpt lat="50.51305" lon="3.41501">
        <ele>25.901145</ele>
        <time>2022-07-16T14:59:39.470Z</time>
      </trkpt>
      <trkpt lat="50.51353" lon="3.41606">
        <ele>26.516851</ele>
        <time>2022-07-16T14:59:55.133Z</time>
      </trkpt>
      <trkpt lat="50.51359" lon="3.41622">
        <ele>26.603259</ele>
        <time>2022-07-16T14:59:57.091Z</time>
      </trkpt>
      <trkpt lat="50.51364" lon="3.41637">
        <ele>26.684514</ele>
        <time>2022-07-16T14:59:58.920Z</time>
      </trkpt>
      <trkpt lat="50.51369" lon="3.41656">
        <ele>26.781719</ele>
        <time>2022-07-16T15:00:01.099Z</time>
      </trkpt>
      <trkpt lat="50.51373" lon="3.41671">
        <ele>26.859608</ele>
        <time>2022-07-16T15:00:02.661Z</time>
      </trkpt>
      <trkpt lat="50.51376" lon="3.41687">
        <ele>26.859649</ele>
        <time>2022-07-16T15:00:04.285Z</time>
      </trkpt>
      <trkpt lat="50.51388" lon="3.41753">
        <ele>26.770318</ele>
        <time>2022-07-16T15:00:10.592Z</time>
      </trkpt>
      <trkpt lat="50.51444" lon="3.41845">
        <ele>26.606068</ele>
        <time>2022-07-16T15:00:21.905Z</time>
      </trkpt>
      <trkpt lat="50.51467" lon="3.41892">
        <ele>26.529018</ele>
        <time>2022-07-16T15:00:26.943Z</time>
      </trkpt>
      <trkpt lat="50.51479" lon="3.41941">
        <ele>26.249894</ele>
        <time>2022-07-16T15:00:31.347Z</time>
      </trkpt>
      <trkpt lat="50.51481" lon="3.4195">
        <ele>26.189656</ele>
        <time>2022-07-16T15:00:32.027Z</time>
      </trkpt>
      <trkpt lat="50.51494" lon="3.41991">
        <ele>25.880497</ele>
        <time>2022-07-16T15:00:35.938Z</time>
      </trkpt>
      <trkpt lat="50.51521" lon="3.42059">
        <ele>25.347723</ele>
        <time>2022-07-16T15:00:42.269Z</time>
      </trkpt>
      <trkpt lat="50.51522" lon="3.42067">
        <ele>25.291402</ele>
        <time>2022-07-16T15:00:42.922Z</time>
      </trkpt>
      <trkpt lat="50.51525" lon="3.42082">
        <ele>25.185125</ele>
        <time>2022-07-16T15:00:44.338Z</time>
      </trkpt>
      <trkpt lat="50.51524" lon="3.42087">
        <ele>25.147342</ele>
        <time>2022-07-16T15:00:44.786Z</time>
      </trkpt>
      <trkpt lat="50.51515" lon="3.42095">
        <ele>25.045981</ele>
        <time>2022-07-16T15:00:45.876Z</time>
      </trkpt>
      <trkpt lat="50.51503" lon="3.42102">
        <ele>24.907389</ele>
        <time>2022-07-16T15:00:47.326Z</time>
      </trkpt>
      <trkpt lat="50.51485" lon="3.42109">
        <ele>24.71069</ele>
        <time>2022-07-16T15:00:49.545Z</time>
      </trkpt>
      <trkpt lat="50.5149" lon="3.42131">
        <ele>24.473376</ele>
        <time>2022-07-16T15:00:51.733Z</time>
      </trkpt>
      <trkpt lat="50.51485" lon="3.42109">
        <ele>24.089871</ele>
        <time>2022-07-16T15:00:54.174Z</time>
      </trkpt>
      <trkpt lat="50.51503" lon="3.42102">
        <ele>23.604852</ele>
        <time>2022-07-16T15:00:56.086Z</time>
      </trkpt>
      <trkpt lat="50.51516" lon="3.42101">
        <ele>23.260073</ele>
        <time>2022-07-16T15:00:57.529Z</time>
      </trkpt>
      <trkpt lat="50.51526" lon="3.42098">
        <ele>23.002938</ele>
        <time>2022-07-16T15:00:58.566Z</time>
      </trkpt>
      <trkpt lat="50.51531" lon="3.42102">
        <ele>22.850551</ele>
        <time>2022-07-16T15:00:59.147Z</time>
      </trkpt>
      <trkpt lat="50.51537" lon="3.42114">
        <ele>22.601548</ele>
        <time>2022-07-16T15:01:00.096Z</time>
      </trkpt>
      <trkpt lat="50.51541" lon="3.42124">
        <ele>22.405584</ele>
        <time>2022-07-16T15:01:00.930Z</time>
      </trkpt>
      <trkpt lat="50.51577" lon="3.42252">
        <ele>20.08097</ele>
        <time>2022-07-16T15:01:10.157Z</time>
      </trkpt>
      <trkpt lat="50.51598" lon="3.42329">
        <ele>19.002741</ele>
        <time>2022-07-16T15:01:15.626Z</time>
      </trkpt>
      <trkpt lat="50.516" lon="3.4234">
        <ele>18.865662</ele>
        <time>2022-07-16T15:01:16.349Z</time>
      </trkpt>
      <trkpt lat="50.5159" lon="3.42448">
        <ele>17.511442</ele>
        <time>2022-07-16T15:01:23.697Z</time>
      </trkpt>
      <trkpt lat="50.51527" lon="3.43125">
        <ele>14.897695</ele>
        <time>2022-07-16T15:02:22.205Z</time>
      </trkpt>
      <trkpt lat="50.51526" lon="3.43216">
        <ele>14.982469</ele>
        <time>2022-07-16T15:02:30.960Z</time>
      </trkpt>
      <trkpt lat="50.51537" lon="3.43274">
        <ele>15.038745</ele>
        <time>2022-07-16T15:02:36.950Z</time>
      </trkpt>
      <trkpt lat="50.51559" lon="3.4334">
        <ele>15.108396</ele>
        <time>2022-07-16T15:02:44.539Z</time>
      </trkpt>
      <trkpt lat="50.51586" lon="3.43405">
        <ele>15.325434</ele>
        <time>2022-07-16T15:02:52.849Z</time>
      </trkpt>
      <trkpt lat="50.51639" lon="3.43485">
        <ele>15.752947</ele>
        <time>2022-07-16T15:03:05.907Z</time>
      </trkpt>
      <trkpt lat="50.51691" lon="3.43575">
        <ele>16.188166</ele>
        <time>2022-07-16T15:03:19.597Z</time>
      </trkpt>
      <trkpt lat="50.51621" lon="3.43677">
        <ele>16.269899</ele>
        <time>2022-07-16T15:03:39.662Z</time>
      </trkpt>
      <trkpt lat="50.51606" lon="3.43692">
        <ele>16.285456</ele>
        <time>2022-07-16T15:03:43.259Z</time>
      </trkpt>
      <trkpt lat="50.51588" lon="3.43735">
        <ele>16.313383</ele>
        <time>2022-07-16T15:03:49.616Z</time>
      </trkpt>
      <trkpt lat="50.51579" lon="3.4378">
        <ele>16.339332</ele>
        <time>2022-07-16T15:03:55.355Z</time>
      </trkpt>
      <trkpt lat="50.51578" lon="3.43822">
        <ele>16.244615</ele>
        <time>2022-07-16T15:04:00.397Z</time>
      </trkpt>
      <trkpt lat="50.51595" lon="3.43999">
        <ele>15.840011</ele>
        <time>2022-07-16T15:04:21.593Z</time>
      </trkpt>
      <trkpt lat="50.51492" lon="3.44065">
        <ele>15.749948</ele>
        <time>2022-07-16T15:04:43.352Z</time>
      </trkpt>
      <trkpt lat="50.5146" lon="3.44108">
        <ele>15.78053</ele>
        <time>2022-07-16T15:04:52.162Z</time>
      </trkpt>
      <trkpt lat="50.51402" lon="3.44214">
        <ele>15.835658</ele>
        <time>2022-07-16T15:05:11.192Z</time>
      </trkpt>
      <trkpt lat="50.51392" lon="3.44233">
        <ele>15.839812</ele>
        <time>2022-07-16T15:05:14.347Z</time>
      </trkpt>
      <trkpt lat="50.5134" lon="3.44349">
        <ele>15.864107</ele>
        <time>2022-07-16T15:05:32.872Z</time>
      </trkpt>
      <trkpt lat="50.51322" lon="3.4435">
        <ele>15.869101</ele>
        <time>2022-07-16T15:05:35.492Z</time>
      </trkpt>
      <trkpt lat="50.51266" lon="3.44369">
        <ele>15.819138</ele>
        <time>2022-07-16T15:05:43.631Z</time>
      </trkpt>
      <trkpt lat="50.51187" lon="3.44406">
        <ele>15.612149</ele>
        <time>2022-07-16T15:05:55.104Z</time>
      </trkpt>
      <trkpt lat="50.51116" lon="3.44468">
        <ele>15.414995</ele>
        <time>2022-07-16T15:06:06.371Z</time>
      </trkpt>
      <trkpt lat="50.50888" lon="3.44666">
        <ele>15.116618</ele>
        <time>2022-07-16T15:06:43.086Z</time>
      </trkpt>
      <trkpt lat="50.50707" lon="3.44823">
        <ele>15.477748</ele>
        <time>2022-07-16T15:07:16.138Z</time>
      </trkpt>
      <trkpt lat="50.50661" lon="3.44894">
        <ele>15.651887</ele>
        <time>2022-07-16T15:07:26.405Z</time>
      </trkpt>
      <trkpt lat="50.50599" lon="3.45026">
        <ele>15.964231</ele>
        <time>2022-07-16T15:07:42.514Z</time>
      </trkpt>
      <trkpt lat="50.50551" lon="3.45111">
        <ele>16.182007</ele>
        <time>2022-07-16T15:07:54.374Z</time>
      </trkpt>
      <trkpt lat="50.50513" lon="3.45201">
        <ele>16.636526</ele>
        <time>2022-07-16T15:08:06.515Z</time>
      </trkpt>
      <trkpt lat="50.50477" lon="3.45312">
        <ele>17.174157</ele>
        <time>2022-07-16T15:08:20.844Z</time>
      </trkpt>
      <trkpt lat="50.50471" lon="3.45343">
        <ele>17.313754</ele>
        <time>2022-07-16T15:08:24.449Z</time>
      </trkpt>
      <trkpt lat="50.50458" lon="3.45443">
        <ele>17.414847</ele>
        <time>2022-07-16T15:08:35.469Z</time>
      </trkpt>
      <trkpt lat="50.50444" lon="3.45482">
        <ele>17.414847</ele>
        <time>2022-07-16T15:08:40.259Z</time>
      </trkpt>
      <trkpt lat="50.50407" lon="3.45459">
        <ele>17.414847</ele>
        <time>2022-07-16T15:08:46.617Z</time>
      </trkpt>
      <trkpt lat="50.50355" lon="3.45426">
        <ele>17.414847</ele>
        <time>2022-07-16T15:08:54.968Z</time>
      </trkpt>
      <trkpt lat="50.50347" lon="3.45419">
        <ele>17.414847</ele>
        <time>2022-07-16T15:08:56.230Z</time>
      </trkpt>
    </trkseg>
  </trk>
</gpx>